Eltham High School

Historical Weather Data

                  Temp     Hi    Low   Out         Wind        Wind    Hi    Hi   Wind   Heat          THSW                Rain  Solar   Solar Hi Solar         UV    Hi     Heat    Cool    In     In          Wind  Wind    ISS   Arc.
  Date    Time     Out   Temp   Temp   Hum    Dew Speed   Dir   Run Speed   Dir  Chill  Index    THW  Index   Bar    Rain  Rate   Rad.  Energy    Rad.    UV   Dose   UV     D-D     D-D    Temp   Hum     ET   Samp   Tx   Recept  Int.
------------------------------------------------------------------------------------------------------------------------------------------------------------------------------------------------------------------------------------------
 1/04/20 12:30a    9.8   10.1    9.7    93    8.7   0.0   ---  0.00   0.0   ---    9.8   10.0   10.0    8.2  1031.6  0.00   0.0     0     0.00      0     0.0  0.00   0.0   0.178   0.000   27.3    37    0.00   699    1    100.0   30 
 1/04/20  1:00a    9.6    9.8    9.5    94    8.6   0.0   ---  0.00   0.0   ---    9.6    9.8    9.8    8.1  1031.6  0.00   0.0     0     0.00      0     0.0  0.00   0.0   0.183   0.000   27.2    37    0.00   701    1    100.0   30 
 1/04/20  1:30a    9.2    9.6    9.2    94    8.3   0.0   ---  0.00   0.0   ---    9.2    9.4    9.4    7.6  1031.5  0.00   0.0     0     0.00      0     0.0  0.00   0.0   0.190   0.000   27.1    37    0.00   702    1    100.0   30 
 1/04/20  2:00a    9.2    9.2    9.2    94    8.3   0.0   ---  0.00   0.0   ---    9.2    9.4    9.4    7.6  1031.3  0.00   0.0     0     0.00      0     0.0  0.00   0.0   0.190   0.000   26.9    37    0.00   702    1    100.0   30 
 1/04/20  2:30a    8.9    9.2    8.9    94    8.0   0.0   ---  0.00   0.0   ---    8.9    9.2    9.2    7.3  1031.0  0.00   0.0     0     0.00      0     0.0  0.00   0.0   0.196   0.000   26.7    36    0.00   700    1    100.0   30 
 1/04/20  3:00a    8.8    8.9    8.7    95    8.0   0.0   ---  0.00   0.0   ---    8.8    9.0    9.0    7.2  1031.1  0.00   0.0     0     0.00      0     0.0  0.00   0.0   0.199   0.000   26.6    36    0.00   702    1    100.0   30 
 1/04/20  3:30a    8.6    8.8    8.6    95    7.8   0.0   ---  0.00   0.0   ---    8.6    8.7    8.7    6.9  1030.9  0.00   0.0     0     0.00      0     0.0  0.00   0.0   0.204   0.000   26.5    36    0.00   701    1    100.0   30 
 1/04/20  4:00a    8.2    8.6    8.2    95    7.4   0.0   ---  0.00   0.0   ---    8.2    8.3    8.3    6.5  1031.0  0.00   0.0     0     0.00      0     0.0  0.00   0.0   0.212   0.000   26.4    36    0.00   699    1    100.0   30 
 1/04/20  4:30a    8.2    8.3    8.2    95    7.4   0.0   ---  0.00   0.0   ---    8.2    8.3    8.3    6.5  1030.7  0.00   0.0     0     0.00      0     0.0  0.00   0.0   0.212   0.000   26.2    36    0.00   701    1    100.0   30 
 1/04/20  5:00a    7.9    8.2    7.9    95    7.2   0.0   ---  0.00   0.0   ---    7.9    8.1    8.1    6.2  1031.0  0.00   0.0     0     0.00      0     0.0  0.00   0.0   0.216   0.000   26.1    36    0.00   701    1    100.0   30 
 1/04/20  5:30a    7.8    7.9    7.8    95    7.0   0.0   ---  0.00   0.0   ---    7.8    7.9    7.9    6.1  1031.7  0.00   0.0     0     0.00      0     0.0  0.00   0.0   0.220   0.000   26.0    36    0.00   702    1    100.0   30 
 1/04/20  6:00a    7.5    7.8    7.5    95    6.8   0.0   ---  0.00   0.0   ---    7.5    7.7    7.7    5.8  1031.9  0.00   0.0     0     0.00      0     0.0  0.00   0.0   0.226   0.000   25.9    36    0.00   702    1    100.0   30 
 1/04/20  6:30a    7.6    7.7    7.3    95    6.9   0.0   ---  0.00   0.0   ---    7.6    7.8    7.8    5.9  1032.3  0.00   0.0     0     0.00      5     0.0  0.00   0.0   0.223   0.000   25.8    36    0.00   702    1    100.0   30 
 1/04/20  7:00a    7.8    7.8    7.5    96    7.2   0.0   ---  0.00   0.0   ---    7.8    7.9    7.9    7.2  1032.4  0.25   0.0    17     0.73     37     0.0  0.00   0.0   0.220   0.000   25.7    36    0.00   679    1     99.3   30 
 1/04/20  7:30a    8.6    8.6    7.8    96    8.0   0.0   ---  0.00   0.0   ---    8.6    8.8    8.8    9.4  1032.9  0.00   0.0    76     3.27    116     0.0  0.00   0.0   0.203   0.000   25.6    36    0.00   699    1    100.0   30 
 1/04/20  8:00a    9.9    9.9    8.6    96    9.3   0.0   ---  0.00   0.0   ---    9.9   10.2   10.2   12.4  1032.6  0.00   0.0   166     7.14    216     0.0  0.00   0.0   0.176   0.000   25.6    36    0.05   674    1     98.5   30 
 1/04/20  8:30a   11.1   11.1    9.9    96   10.4   0.0   ---  0.00   0.0   ---   11.1   11.3   11.3   14.8  1032.0  0.00   0.0   264    11.35    313     0.1  0.02   0.5   0.152   0.000   25.4    36    0.00   698    1    100.0   30 
 1/04/20  9:00a   13.2   13.2   11.1    96   12.5   0.0   ---  0.00   0.0   ---   13.2   13.3   13.3   17.9  1032.0  0.00   0.0   372    16.00    418     0.8  0.17   1.0   0.108   0.000   24.8    37    0.15   700    1    100.0   30 
 1/04/20  9:30a   15.8   15.8   13.2    83   12.9   0.0   ---  0.00   0.0   ---   15.8   15.8   15.8   21.1  1031.7  0.00   0.0   463    19.91    504     1.3  0.28   1.7   0.053   0.000   24.6    37    0.00   702    1    100.0   30 
 1/04/20 10:00a   18.1   18.1   15.8    73   13.1   0.0   ---  0.00   0.0   ---   18.1   18.1   18.1   23.7  1031.4  0.00   0.0   542    23.31    578     2.0  0.43   2.2   0.006   0.000   24.7    38    0.25   702    1    100.0   30 
 1/04/20 10:30a   19.2   19.2   18.1    69   13.3   0.0   SSE  0.00   9.7   SSE   19.2   19.3   19.3   25.2  1031.0  0.00   0.0   611    26.28    640     2.5  0.54   2.8   0.000   0.017   25.0    38    0.00   702    1    100.0   30 
 1/04/20 11:00a   21.2   21.2   19.2    63   13.9   0.0   SSE  0.00   3.2   SSE   21.2   20.9   20.9   27.0  1030.7  0.00   0.0   668    28.73    693     3.1  0.66   3.4   0.000   0.060   25.8    39    0.36   701    1    100.0   30 
 1/04/20 11:30a   22.4   22.5   21.2    61   14.5   0.0   SSE  0.00   8.0   SSE   22.4   22.6   22.6   28.7  1030.1  0.00   0.0   712    30.62    726     3.6  0.77   3.8   0.000   0.086   26.2    38    0.00   697    1    100.0   30 
 1/04/20 12:00p   23.4   23.4   22.4    57   14.4   0.0   SSE  0.00  16.1   SSE   23.4   23.6   23.6   29.8  1029.5  0.00   0.0   737    31.70    747     4.0  0.86   4.1   0.000   0.105   26.9    38    0.43   697    1    100.0   30 
 1/04/20 12:30p   23.9   23.9   23.3    49   12.6   1.6   SSE  0.80  16.1   SSE   23.9   23.9   23.9   30.1  1029.4  0.00   0.0   761    32.73    812     4.2  0.90   4.3   0.000   0.117   27.6    38    0.00   699    1    100.0   30 
 1/04/20  1:00p   24.5   24.5   23.9    46   12.1   3.2    SE  1.61  22.5    SE   24.5   24.3   24.3   29.8  1028.8  0.00   0.0   805    34.62    838     4.2  0.90   4.3   0.000   0.128   28.1    38    0.51   701    1    100.0   30 
 1/04/20  1:30p   23.9   24.8   23.8    48   12.2   1.6    SE  0.80  19.3    SE   23.9   23.8   23.8   28.6  1028.0  0.00   0.0   471    20.26    747     3.0  0.64   4.0   0.000   0.116   28.5    37    0.00   700    1    100.0   30 
 1/04/20  2:00p   24.9   24.9   23.8    46   12.5   1.6    SE  0.80  16.1    SE   24.9   24.7   24.7   30.7  1027.7  0.00   0.0   673    28.94    879     3.3  0.71   3.8   0.000   0.138   28.8    38    0.36   701    1    100.0   30 
 1/04/20  2:30p   24.3   25.2   24.2    48   12.6   1.6    SE  0.80  16.1    SE   24.3   24.2   24.2   28.1  1027.8  0.00   0.0   351    15.09    564     2.1  0.45   2.7   0.000   0.124   29.2    38    0.00   699    1    100.0   30 
 1/04/20  3:00p   24.2   24.7   24.2    47   12.2   1.6    SE  0.80  20.9    SE   24.2   24.1   24.1   28.1  1027.6  0.00   0.0   338    14.54    424     1.7  0.36   2.0   0.000   0.123   29.4    38    0.25   703    1    100.0   30 
 1/04/20  3:30p   24.1   24.2   23.8    49   12.7   1.6    SE  0.80  12.9    SE   24.1   24.1   24.1   27.5  1027.6  0.00   0.0   264    11.35    279     1.2  0.26   1.3   0.000   0.120   29.6    39    0.00   701    1    100.0   30 
 1/04/20  4:00p   23.9   24.2   23.9    49   12.6   0.0    SE  0.00   6.4    SE   23.9   23.9   23.9   27.2  1027.5  0.00   0.0   232     9.98    287     0.9  0.19   1.1   0.000   0.117   29.8    39    0.18   701    1    100.0   30 
 1/04/20  4:30p   23.4   23.9   23.4    51   12.7   0.0   ---  0.00   0.0   ---   23.4   23.4   23.4   25.6  1027.3  0.00   0.0   151     6.49    178     0.4  0.09   0.7   0.000   0.106   29.9    39    0.00   668    1     97.7   30 
 1/04/20  5:00p   23.1   23.4   23.1    53   13.0   0.0   ---  0.00   0.0   ---   23.1   23.1   23.1   24.8  1027.3  0.00   0.0   117     5.03    139     0.0  0.00   0.0   0.000   0.100   30.1    39    0.10   703    1    100.0   30 
 1/04/20  5:30p   22.6   23.1   22.6    57   13.6   0.0   ---  0.00   0.0   ---   22.6   22.6   22.6   23.1  1027.2  0.00   0.0    58     2.49     79     0.0  0.00   0.0   0.000   0.088   30.1    39    0.00   701    1    100.0   30 
 1/04/20  6:00p   21.1   22.5   21.1    62   13.5   0.0    SE  0.00  12.9    SE   21.1   20.7   20.7   19.5  1027.1  0.00   0.0    16     0.69     30     0.0  0.00   0.0   0.000   0.057   30.1    39    0.00   701    1    100.0   30 
 1/04/20  6:30p   20.2   21.0   20.2    65   13.4   0.0    SE  0.00  12.9    SE   20.2   20.2   20.2   18.8  1027.4  0.00   0.0     0     0.00      0     0.0  0.00   0.0   0.000   0.038   29.9    40    0.03   700    1    100.0   30 
 1/04/20  7:00p   19.6   20.2   19.6    68   13.5   0.0   ---  0.00   0.0   ---   19.6   19.7   19.7   18.3  1027.5  0.00   0.0     0     0.00      0     0.0  0.00   0.0   0.000   0.025   29.8    40    0.00   700    1    100.0   30 
 1/04/20  7:30p   18.9   19.6   18.9    71   13.5   0.0   ---  0.00   0.0   ---   18.9   19.1   19.1   17.7  1027.8  0.00   0.0     0     0.00      0     0.0  0.00   0.0   0.000   0.012   29.7    40    0.00   703    1    100.0   30 
 1/04/20  8:00p   18.1   18.9   18.1    75   13.6   0.0   ---  0.00   0.0   ---   18.1   18.2   18.2   16.8  1027.6  0.00   0.0     0     0.00      0     0.0  0.00   0.0   0.005   0.000   29.7    40    0.03   698    1    100.0   30 
 1/04/20  8:30p   17.4   18.1   17.4    78   13.5   0.0   ---  0.00   0.0   ---   17.4   17.5   17.5   16.1  1027.5  0.00   0.0     0     0.00      0     0.0  0.00   0.0   0.020   0.000   29.6    40    0.00   702    1    100.0   30 
 1/04/20  9:00p   17.0   17.4   17.0    81   13.7   0.0   ---  0.00   0.0   ---   17.0   17.2   17.2   15.8  1027.3  0.00   0.0     0     0.00      0     0.0  0.00   0.0   0.028   0.000   29.5    40    0.03   699    1    100.0   30 
 1/04/20  9:30p   16.7   17.0   16.7    83   13.8   0.0   ---  0.00   0.0   ---   16.7   16.9   16.9   15.5  1027.3  0.00   0.0     0     0.00      0     0.0  0.00   0.0   0.034   0.000   29.4    41    0.00   701    1    100.0   30 
 1/04/20 10:00p   16.6   16.7   16.6    84   13.8   0.0   ---  0.00   0.0   ---   16.6   16.7   16.7   15.3  1026.7  0.00   0.0     0     0.00      0     0.0  0.00   0.0   0.037   0.000   29.3    41    0.03   698    1    100.0   30 
 1/04/20 10:30p   16.7   16.7   16.5    84   13.9   0.0   ---  0.00   0.0   ---   16.7   16.8   16.8   15.4  1026.4  0.00   0.0     0     0.00      0     0.0  0.00   0.0   0.035   0.000   29.2    41    0.00   700    1    100.0   30 
 1/04/20 11:00p   16.9   16.9   16.7    84   14.2   0.0   ---  0.00   0.0   ---   16.9   17.1   17.1   15.7  1026.6  0.00   0.0     0     0.00      0     0.0  0.00   0.0   0.030   0.000   29.1    41    0.03   699    1    100.0   30 
 1/04/20 11:30p   16.6   16.9   16.6    86   14.2   0.0   ---  0.00   0.0   ---   16.6   16.7   16.7   15.3  1026.4  0.00   0.0     0     0.00      0     0.0  0.00   0.0   0.037   0.000   29.1    41    0.00   695    1    100.0   30 
 2/04/20 12:00a   16.4   16.6   16.4    88   14.5   0.0   ---  0.00   0.0   ---   16.4   16.7   16.7   15.3  1025.8  0.25   0.0     0     0.00      0     0.0  0.00   0.0   0.039   0.000   28.9    41    0.00   701    1    100.0   30 
 2/04/20 12:30a   16.4   16.5   16.4    90   14.7   0.0   ---  0.00   0.0   ---   16.4   16.7   16.7   15.3  1025.2  0.25   0.0     0     0.00      0     0.0  0.00   0.0   0.041   0.000   28.9    41    0.00   668    1     97.7   30 
 2/04/20  1:00a   16.3   16.4   16.2    92   15.0   0.0   ---  0.00   0.0   ---   16.3   16.6   16.6   15.2  1025.5  1.02   3.6     0     0.00      0     0.0  0.00   0.0   0.043   0.000   28.8    42    0.00   697    1    100.0   30 
 2/04/20  1:30a   16.1   16.2   16.1    93   15.0   0.0   ---  0.00   0.0   ---   16.1   16.4   16.4   15.1  1025.0  1.27   4.8     0     0.00      0     0.0  0.00   0.0   0.046   0.000   28.8    42    0.00   700    1    100.0   30 
 2/04/20  2:00a   16.0   16.1   16.0    94   15.0   0.0   ---  0.00   0.0   ---   16.0   16.3   16.3   14.9  1024.8  3.81  14.2     0     0.00      0     0.0  0.00   0.0   0.049   0.000   28.7    42    0.00   683    1     99.9   30 
 2/04/20  2:30a   16.0   16.1   16.0    94   15.0   0.0   ---  0.00   0.0   ---   16.0   16.3   16.3   14.9  1024.0  4.83  16.3     0     0.00      0     0.0  0.00   0.0   0.049   0.000   28.7    42    0.00   630    1     92.1   30 
 2/04/20  3:00a   15.7   16.0   15.7    94   14.8   0.0   ---  0.00   0.0   ---   15.7   15.9   15.9   14.6  1023.4  4.57  13.5     0     0.00      0     0.0  0.00   0.0   0.054   0.000   28.6    42    0.00   617    1     90.2   30 
 2/04/20  3:30a   15.4   15.8   15.4    95   14.6   0.0    SE  0.00   8.0    SE   15.4   15.6   15.6   14.3  1022.4  2.54   8.6     0     0.00      0     0.0  0.00   0.0   0.061   0.000   28.6    42    0.00   607    1     88.7   30 
 2/04/20  4:00a   15.6   15.6   15.4    95   14.8   0.0   ---  0.00   0.0   ---   15.6   15.8   15.8   14.4  1021.6  5.08  18.5     0     0.00      0     0.0  0.00   0.0   0.058   0.000   28.6    42    0.00   621    1     90.8   30 
 2/04/20  4:30a   15.5   15.6   15.5    96   14.9   0.0    SE  0.00  11.3    SE   15.5   15.7   15.7   14.4  1021.8  3.05  20.1     0     0.00      0     0.0  0.00   0.0   0.059   0.000   28.5    42    0.00   623    1     91.1   30 
 2/04/20  5:00a   15.5   15.6   15.5    96   14.9   0.0   ---  0.00   0.0   ---   15.5   15.7   15.7   14.4  1021.5  1.27   6.1     0     0.00      0     0.0  0.00   0.0   0.059   0.000   28.5    43    0.00   617    1     90.2   30 
 2/04/20  5:30a   15.3   15.5   15.3    96   14.6   0.0    SE  0.00  24.1    SE   15.3   15.5   15.5   14.2  1021.3  0.25   1.3     0     0.00      0     0.0  0.00   0.0   0.064   0.000   28.4    43    0.00   627    1     91.7   30 
 2/04/20  6:00a   15.1   15.3   15.1    96   14.5   0.0    SE  0.00   8.0    SE   15.1   15.3   15.3   14.0  1021.2  0.00   0.0     0     0.00      0     0.0  0.00   0.0   0.067   0.000   28.4    43    0.00   648    1     94.7   30 
 2/04/20  6:30a   15.0   15.2   15.0    96   14.4   0.0    SE  0.00  12.9    SE   15.0   15.2   15.2   13.8  1020.8  0.00   0.0     0     0.00      0     0.0  0.00   0.0   0.069   0.000   28.4    43    0.00   657    1     96.1   30 
 2/04/20  7:00a   15.0   15.0   14.9    96   14.4   0.0   ---  0.00   0.0   ---   15.0   15.2   15.2   14.2  1020.9  0.00   0.0     2     0.09      7     0.0  0.00   0.0   0.069   0.000   28.3    43    0.00   687    1    100.0   30 
 2/04/20  7:30a   15.2   15.2   15.0    96   14.6   0.0   ---  0.00   0.0   ---   15.2   15.4   15.4   14.7  1020.8  0.00   0.0    11     0.47     32     0.0  0.00   0.0   0.065   0.000   28.3    43    0.00   692    1    100.0   30 
 2/04/20  8:00a   15.4   15.4   15.2    96   14.8   0.0   ---  0.00   0.0   ---   15.4   15.7   15.7   15.6  1020.8  0.00   0.0    42     1.81     62     0.0  0.00   0.0   0.060   0.000   28.3    43    0.03   699    1    100.0   30 
 2/04/20  8:30a   15.7   15.7   15.4    96   15.0   0.0   ---  0.00   0.0   ---   15.7   15.9   15.9   15.8  1020.9  0.00   0.0    42     1.81     72     0.0  0.00   0.0   0.056   0.000   28.3    43    0.00   698    1    100.0   30 
 2/04/20  9:00a   15.7   15.7   15.6    96   15.0   0.0   ---  0.00   0.0   ---   15.7   15.9   15.9   15.9  1020.8  0.00   0.0    55     2.37     74     0.0  0.00   0.0   0.056   0.000   28.4    43    0.03   697    1    100.0   30 
 2/04/20  9:30a   16.0   16.0   15.7    97   15.5   0.0   ---  0.00   0.0   ---   16.0   16.3   16.3   16.7  1020.5  0.00   0.0    81     3.48    142     0.1  0.02   0.6   0.049   0.000   28.4    43    0.00   694    1    100.0   30 
 2/04/20 10:00a   16.6   16.6   16.0    97   16.1   0.0    SE  0.00  11.3    SE   16.6   17.0   17.0   19.6  1020.4  0.00   0.0   235    10.11    397     1.0  0.21   1.5   0.036   0.000   28.5    43    0.08   691    1    100.0   30 
 2/04/20 10:30a   17.7   17.7   16.6    95   16.9   0.0    SE  0.00  12.9    SE   17.7   18.2   18.2   21.3  1020.1  0.00   0.0   286    12.30    536     1.6  0.34   2.6   0.014   0.000   28.6    43    0.00   702    1    100.0   30 
 2/04/20 11:00a   19.2   19.2   17.7    87   17.0   1.6   ESE  0.80  20.9    SE   19.2   19.9   19.9   23.2  1019.7  0.00   0.0   302    12.99    496     1.8  0.39   3.5   0.000   0.019   28.8    43    0.18   698    1    100.0   30 
 2/04/20 11:30a   20.0   20.0   19.2    78   16.0   4.8   NNW  2.41  32.2     N   20.0   20.6   20.6   24.3  1019.2  0.00   0.0   354    15.22    452     2.3  0.49   2.8   0.000   0.035   29.1    43    0.00   701    1    100.0   30 
 2/04/20 12:00p   20.6   20.6   20.0    74   15.8  12.9   NNW  6.44  41.8   NNE   20.6   21.1   20.4   23.9  1018.7  0.00   0.0   371    15.96    461     2.4  0.51   2.9   0.000   0.046   29.3    43    0.23   702    1    100.0   30 
 2/04/20 12:30p   20.6   20.6   20.5    74   15.8   9.7   NNW  4.83  32.2   NNW   20.6   21.1   21.1   23.6  1018.7  0.00   0.0   256    11.01    338     1.7  0.36   2.1   0.000   0.046   29.4    43    0.00   700    1    100.0   30 
 2/04/20  1:00p   20.7   20.7   20.5    72   15.4   9.7   NNW  4.83  35.4     N   20.7   21.0   21.0   23.3  1018.3  0.00   0.0   238    10.24    250     1.6  0.34   1.7   0.000   0.049   29.5    43    0.18   703    1    100.0   30 
 2/04/20  1:30p   20.3   20.7   20.3    71   14.9  14.5   NNW  7.24  41.8   NNE   20.3   20.7   19.6   21.5  1018.2  0.00   0.0   217     9.33    274     1.4  0.30   1.8   0.000   0.042   29.6    43    0.00   698    1    100.0   30 
 2/04/20  2:00p   19.6   20.3   19.6    77   15.5  11.3     N  5.63  41.8     N   19.6   20.1   19.8   20.8  1018.2  0.00   0.0   133     5.72    206     0.8  0.17   1.2   0.000   0.027   29.7    43    0.15   702    1    100.0   30 
 2/04/20  2:30p   19.4   19.6   18.7    79   15.7   8.0   NNE  4.02  43.5    NE   19.4   19.9   19.9   22.7  1018.1  0.25   0.0   249    10.71    459     1.4  0.30   3.0   0.000   0.022   29.7    43    0.00   697    1    100.0   30 
 2/04/20  3:00p   19.1   19.5   19.1    79   15.3  11.3     N  5.63  41.8   NNE   19.1   19.6   19.2   20.4  1018.1  0.00   0.0   127     5.46    237     0.5  0.11   1.3   0.000   0.015   29.7    43    0.15   699    1    100.0   30 
 2/04/20  3:30p   18.5   19.1   18.5    82   15.4  11.3     N  5.63  53.1   NNE   18.5   18.9   18.6   18.7  1018.2  0.00   0.0    63     2.71     83     0.0  0.00   0.0   0.000   0.003   29.7    43    0.00   700    1    100.0   30 
 2/04/20  4:00p   18.1   18.5   18.1    86   15.7   1.6   NNW  0.80  24.1   NNW   18.1   18.6   18.6   18.8  1018.3  0.76   3.6    58     2.49     70     0.0  0.00   0.0   0.005   0.000   29.7    43    0.00   701    1    100.0   30 
 2/04/20  4:30p   17.6   18.1   17.6    90   15.9   0.0   ---  0.00   0.0   ---   17.6   18.0   18.0   17.9  1018.6  1.27   3.6    37     1.59     65     0.0  0.00   0.0   0.016   0.000   29.7    43    0.05   668    1     97.7   30 
 2/04/20  5:00p   16.5   17.6   16.5    92   15.2   1.6    SW  0.80  20.9    SW   16.5   16.8   16.8   16.1  1019.0  1.78  12.4    11     0.47     16     0.0  0.00   0.0   0.038   0.000   29.6    43    0.00   694    1    100.0   30 
 2/04/20  5:30p   16.3   16.5   16.3    94   15.3   0.0   ---  0.00   0.0   ---   16.3   16.6   16.6   15.6  1019.4  1.78   8.4    11     0.47     19     0.0  0.00   0.0   0.043   0.000   29.5    44    0.03   668    1     97.7   30 
 2/04/20  6:00p   15.9   16.3   15.9    94   15.0   0.0    SW  0.00  17.7   SSW   15.9   16.2   16.2   15.1  1019.8  1.52  10.2     1     0.04      7     0.0  0.00   0.0   0.050   0.000   29.5    44    0.00   662    1     96.8   30 
 2/04/20  6:30p   15.8   15.9   15.8    95   15.0   0.0   ---  0.00   0.0   ---   15.8   16.0   16.0   14.8  1020.2  0.51   1.5     0     0.00      0     0.0  0.00   0.0   0.053   0.000   29.4    44    0.00   647    1     94.6   30 
 2/04/20  7:00p   15.7   15.8   15.7    95   14.9   0.0   ---  0.00   0.0   ---   15.7   15.9   15.9   14.8  1020.6  0.25   1.5     0     0.00      0     0.0  0.00   0.0   0.054   0.000   29.4    44    0.00   643    1     94.0   30 
 2/04/20  7:30p   15.7   15.8   15.7    95   14.9   0.0   ---  0.00   0.0   ---   15.7   15.9   15.9   14.8  1021.1  0.00   0.0     0     0.00      0     0.0  0.00   0.0   0.054   0.000   29.4    44    0.00   671    1     98.1   30 
 2/04/20  8:00p   15.8   15.9   15.7    96   15.2   0.0   ---  0.00   0.0   ---   15.8   16.1   16.1   14.9  1021.4  0.00   0.0     0     0.00      0     0.0  0.00   0.0   0.052   0.000   29.3    44    0.00   677    1     99.0   30 
 2/04/20  8:30p   15.4   15.9   15.4    96   14.8   1.6     W  0.80  29.0     W   15.4   15.6   15.6   14.4  1021.8  1.78  10.9     0     0.00      0     0.0  0.00   0.0   0.061   0.000   29.2    44    0.00   639    1     93.4   30 
 2/04/20  9:00p   15.3   15.4   15.3    96   14.7   0.0   ---  0.00   0.0   ---   15.3   15.6   15.6   14.4  1022.0  0.51   2.0     0     0.00      0     0.0  0.00   0.0   0.063   0.000   29.2    44    0.00   630    1     92.1   30 
 2/04/20  9:30p   15.6   15.6   15.3    96   14.9   0.0   ---  0.00   0.0   ---   15.6   15.8   15.8   14.6  1021.8  0.25   1.3     0     0.00      0     0.0  0.00   0.0   0.058   0.000   29.1    44    0.00   631    1     92.3   30 
 2/04/20 10:00p   15.5   15.6   15.5    96   14.9   0.0   ---  0.00   0.0   ---   15.5   15.7   15.7   14.6  1022.0  0.00   0.0     0     0.00      0     0.0  0.00   0.0   0.059   0.000   29.1    44    0.00   678    1     99.1   30 
 2/04/20 10:30p   15.4   15.5   15.4    96   14.8   0.0   ---  0.00   0.0   ---   15.4   15.6   15.6   14.4  1021.6  0.00   0.0     0     0.00      0     0.0  0.00   0.0   0.061   0.000   28.9    44    0.00   669    1     97.8   30 
 2/04/20 11:00p   15.3   15.4   15.3    96   14.6   0.0   ---  0.00   0.0   ---   15.3   15.5   15.5   14.3  1021.5  0.00   0.0     0     0.00      0     0.0  0.00   0.0   0.064   0.000   28.9    44    0.00   674    1     98.5   30 
 2/04/20 11:30p   15.2   15.3   15.2    96   14.5   0.0   ---  0.00   0.0   ---   15.2   15.4   15.4   14.2  1021.4  0.00   0.0     0     0.00      0     0.0  0.00   0.0   0.066   0.000   28.8    44    0.00   687    1    100.0   30 
 3/04/20 12:00a   14.9   15.2   14.9    96   14.3   0.0   ---  0.00   0.0   ---   14.9   15.1   15.1   13.9  1021.2  0.00   0.0     0     0.00      0     0.0  0.00   0.0   0.072   0.000   28.7    44    0.00   687    1    100.0   30 
 3/04/20 12:30a   14.3   14.9   14.3    96   13.7   0.0   ---  0.00   0.0   ---   14.3   14.5   14.5   13.3  1021.2  0.00   0.0     0     0.00      0     0.0  0.00   0.0   0.083   0.000   28.6    44    0.00   693    1    100.0   30 
 3/04/20  1:00a   14.1   14.3   14.1    97   13.6   0.0   ---  0.00   0.0   ---   14.1   14.3   14.3   13.1  1021.1  0.00   0.0     0     0.00      0     0.0  0.00   0.0   0.088   0.000   28.5    44    0.00   697    1    100.0   30 
 3/04/20  1:30a   13.8   14.2   13.8    96   13.2   0.0   ---  0.00   0.0   ---   13.8   13.9   13.9   12.7  1021.2  0.00   0.0     0     0.00      0     0.0  0.00   0.0   0.094   0.000   28.4    44    0.00   700    1    100.0   30 
 3/04/20  2:00a   13.7   13.8   13.7    97   13.3   0.0   ---  0.00   0.0   ---   13.7   13.9   13.9   12.6  1020.9  0.25   0.0     0     0.00      0     0.0  0.00   0.0   0.096   0.000   28.3    44    0.00   655    1     95.8   30 
 3/04/20  2:30a   13.5   13.8   13.5    97   13.0   0.0   ---  0.00   0.0   ---   13.5   13.7   13.7   12.4  1020.5  0.00   0.0     0     0.00      0     0.0  0.00   0.0   0.101   0.000   28.2    44    0.00   644    1     94.2   30 
 3/04/20  3:00a   13.3   13.5   13.2    97   12.8   0.0   ---  0.00   0.0   ---   13.3   13.4   13.4   12.2  1020.4  0.00   0.0     0     0.00      0     0.0  0.00   0.0   0.105   0.000   27.9    44    0.00   637    1     93.1   30 
 3/04/20  3:30a   12.7   13.3   12.7    97   12.3   0.0   ---  0.00   0.0   ---   12.7   12.9   12.9   11.6  1020.0  0.00   0.0     0     0.00      0     0.0  0.00   0.0   0.117   0.000   27.8    44    0.00   605    1     88.5   30 
 3/04/20  4:00a   12.5   12.7   12.4    97   12.0   0.0   ---  0.00   0.0   ---   12.5   12.7   12.7   11.4  1020.0  0.00   0.0     0     0.00      0     0.0  0.00   0.0   0.122   0.000   27.8    43    0.00   639    1     93.4   30 
 3/04/20  4:30a   12.0   12.5   12.0    97   11.5   0.0   ---  0.00   0.0   ---   12.0   12.2   12.2   10.8  1019.9  0.00   0.0     0     0.00      0     0.0  0.00   0.0   0.132   0.000   27.7    43    0.00   641    1     93.7   30 
 3/04/20  5:00a   11.7   12.1   11.7    97   11.3   0.0   ---  0.00   0.0   ---   11.7   11.9   11.9   10.6  1019.7  0.00   0.0     0     0.00      0     0.0  0.00   0.0   0.138   0.000   27.6    43    0.00   652    1     95.3   30 
 3/04/20  5:30a   11.7   11.7   11.6    97   11.3   0.0   ---  0.00   0.0   ---   11.7   11.9   11.9   10.6  1019.8  0.00   0.0     0     0.00      0     0.0  0.00   0.0   0.138   0.000   27.4    43    0.00   649    1     94.9   30 
 3/04/20  6:00a   11.6   11.7   11.5    97   11.1   0.0   ---  0.00   0.0   ---   11.6   11.7   11.7   10.4  1019.4  0.00   0.0     0     0.00      0     0.0  0.00   0.0   0.141   0.000   27.3    43    0.00   658    1     96.2   30 
 3/04/20  6:30a   11.3   11.6   11.3    97   10.9   0.0   ---  0.00   0.0   ---   11.3   11.6   11.6   10.2  1019.3  0.00   0.0     0     0.00      0     0.0  0.00   0.0   0.146   0.000   27.3    43    0.00   643    1     94.0   30 
 3/04/20  7:00a   11.4   11.4   11.3    97   10.9   0.0   ---  0.00   0.0   ---   11.4   11.6   11.6   10.8  1019.1  0.00   0.0    13     0.56     32     0.0  0.00   0.0   0.145   0.000   27.2    43    0.00   621    1     90.8   30 
 3/04/20  7:30a   11.8   11.8   11.3    98   11.5   0.0   ---  0.00   0.0   ---   11.8   12.0   12.0   12.4  1019.0  0.00   0.0    63     2.71     83     0.0  0.00   0.0   0.135   0.000   27.1    43    0.00   667    1     97.5   30 
 3/04/20  8:00a   13.0   13.0   11.8    98   12.7   0.0   ---  0.00   0.0   ---   13.0   13.2   13.2   14.6  1018.9  0.00   0.0   116     4.99    167     0.0  0.00   0.0   0.111   0.000   27.1    43    0.05   692    1    100.0   30 
 3/04/20  8:30a   14.7   14.7   13.0    98   14.4   0.0   ---  0.00   0.0   ---   14.7   14.9   14.9   17.3  1018.8  0.00   0.0   187     8.04    257     0.1  0.02   0.5   0.076   0.000   27.2    43    0.00   693    1    100.0   30 
 3/04/20  9:00a   15.8   15.8   14.7    98   15.5   0.0   ---  0.00   0.0   ---   15.8   16.1   16.1   19.6  1018.9  0.00   0.0   267    11.48    408     0.7  0.15   1.1   0.053   0.000   27.3    42    0.13   697    1    100.0   30 
 3/04/20  9:30a   17.7   17.7   15.7    96   17.1   1.6   NNE  0.80  22.5     N   17.7   18.3   18.3   24.2  1018.6  0.00   0.0   526    22.62    657     1.6  0.34   1.9   0.013   0.000   27.6    42    0.00   698    1    100.0   30 
 3/04/20 10:00a   20.4   20.4   17.7    77   16.3   4.8   NNE  2.41  29.0   NNE   20.4   21.1   21.1   27.2  1018.3  0.00   0.0   613    26.36    714     2.2  0.47   2.6   0.000   0.044   27.8    42    0.30   675    1     98.7   30 
 3/04/20 10:30a   20.8   20.8   20.4    72   15.6  11.3     N  5.63  37.0   WNW   20.8   21.1   21.0   26.9  1018.0  0.00   0.0   623    26.79    717     2.6  0.56   3.0   0.000   0.052   28.2    42    0.00   700    1    100.0   30 
 3/04/20 11:00a   21.1   21.1   20.8    69   15.1  11.3   NNW  5.63  43.5   NNW   21.1   21.1   20.9   26.7  1017.7  0.00   0.0   614    26.41    766     3.1  0.66   3.6   0.000   0.057   28.4    42    0.41   702    1    100.0   30 
 3/04/20 11:30a   21.6   21.6   21.1    66   15.0  17.7   NNE  8.85  43.5   NNE   21.6   21.6   20.3   25.5  1017.1  0.00   0.0   709    30.49    754     3.7  0.79   3.8   0.000   0.068   28.7    42    0.00   702    1    100.0   30 
 3/04/20 12:00p   22.1   22.1   21.6    62   14.4  16.1   NNE  8.05  49.9     N   22.1   22.0   20.9   26.3  1016.4  0.00   0.0   722    31.05    733     4.0  0.86   4.1   0.000   0.078   28.9    42    0.51   701    1    100.0   30 
 3/04/20 12:30p   21.9   22.0   21.9    65   15.1  19.3   NNE  9.66  51.5     N   21.9   22.0   20.5   25.5  1016.1  0.00   0.0   691    29.72    844     3.8  0.81   4.6   0.000   0.075   29.2    42    0.00   699    1    100.0   30 
 3/04/20  1:00p   22.1   22.1   21.9    63   14.7  19.3   NNE  9.66  56.3   NNE   22.1   22.2   20.7   25.4  1015.5  0.00   0.0   619    26.62    898     3.6  0.77   4.5   0.000   0.079   29.4    42    0.48   700    1    100.0   30 
 3/04/20  1:30p   22.9   23.1   22.1    60   14.7  17.7   NNE  8.85  46.7    NE   22.9   23.2   22.0   26.7  1014.9  0.00   0.0   765    32.90    833     4.0  0.86   4.2   0.000   0.095   29.6    42    0.00   701    1    100.0   30 
 3/04/20  2:00p   22.9   23.2   22.8    60   14.8  16.1   NNE  8.05  46.7   NNE   22.9   23.2   22.2   27.6  1014.4  0.00   0.0   676    29.07    722     3.5  0.75   3.8   0.000   0.096   29.8    42    0.53   702    1    100.0   30 
 3/04/20  2:30p   22.8   22.9   22.4    60   14.7  19.3   NNE  9.66  51.5   NNE   22.8   23.1   21.7   26.6  1013.9  0.00   0.0   607    26.10    703     2.9  0.62   3.3   0.000   0.094   30.1    41    0.00   702    1    100.0   30 
 3/04/20  3:00p   21.9   22.8   21.9    62   14.3  17.7   NNE  8.85  48.3   NNE   21.9   21.9   20.6   23.2  1013.8  0.00   0.0   255    10.97    571     1.7  0.36   2.7   0.000   0.075   30.2    41    0.36   700    1    100.0   30 
 3/04/20  3:30p   21.6   21.9   21.5    64   14.5  16.1     N  8.05  48.3   NNW   21.6   21.4   20.3   22.4  1013.4  0.00   0.0   189     8.13    336     1.1  0.24   1.7   0.000   0.067   30.3    41    0.00   702    1    100.0   30 
 3/04/20  4:00p   21.1   21.6   21.1    66   14.5  12.9   NNE  6.44  43.5    NE   21.1   20.9   20.3   22.1  1012.9  0.00   0.0   142     6.11    260     0.7  0.15   1.0   0.000   0.057   30.3    41    0.18   699    1    100.0   30 
 3/04/20  4:30p   20.7   21.1   20.7    67   14.4  11.3   NNE  5.63  35.4   NNE   20.7   20.7   20.6   21.4  1012.8  0.00   0.0    81     3.48     98     0.0  0.00   0.0   0.000   0.050   30.4    41    0.00   700    1    100.0   30 
 3/04/20  5:00p   20.3   20.7   20.3    69   14.5  11.3   NNE  5.63  41.8   NNE   20.3   20.6   20.4   20.1  1012.4  0.00   0.0    28     1.20     47     0.0  0.00   0.0   0.000   0.042   29.7    42    0.08   698    1    100.0   30 
 3/04/20  5:30p   20.2   20.3   20.2    70   14.5  20.9   NNE 10.46  64.4    NE   20.2   20.4   18.5   17.8  1011.7  0.00   0.0    23     0.99     51     0.0  0.00   0.0   0.000   0.038   28.9    43    0.00   698    1    100.0   30 
 3/04/20  6:00p   19.6   20.2   19.6    71   14.2  19.3   NNE  9.66  45.1    NE   19.6   19.9   18.1   17.3  1011.6  0.00   0.0    12     0.52     16     0.0  0.00   0.0   0.000   0.027   28.5    44    0.10   700    1    100.0   30 
 3/04/20  6:30p   19.0   19.6   19.0    73   14.0  12.9   NNE  6.44  57.9   NNE   19.0   19.2   18.4   17.2  1011.9  0.00   0.0     0     0.00      0     0.0  0.00   0.0   0.000   0.014   28.4    45    0.00   699    1    100.0   30 
 3/04/20  7:00p   18.9   19.1   18.9    72   13.8  17.7     N  8.85  54.7   NNE   18.8   19.1   17.5   16.4  1011.9  0.00   0.0     0     0.00      0     0.0  0.00   0.0   0.000   0.013   28.9    44    0.00   702    1    100.0   30 
 3/04/20  7:30p   18.9   18.9   18.8    73   14.0  16.1   NNE  8.05  43.5   NNE   18.9   19.2   17.8   16.8  1011.4  0.00   0.0     0     0.00      0     0.0  0.00   0.0   0.000   0.013   29.2    44    0.05   673    1     98.4   30 
 3/04/20  8:00p   18.9   19.1   18.9    73   14.0  11.3     N  5.63  41.8   NNW   18.9   19.2   18.8   17.6  1011.2  0.00   0.0     0     0.00      0     0.0  0.00   0.0   0.000   0.013   29.3    43    0.05   700    1    100.0   30 
 3/04/20  8:30p   17.9   18.9   17.9    82   14.8   4.8     N  2.41  27.4     N   17.9   18.2   18.2   17.0  1011.2  0.76   2.5     0     0.00      0     0.0  0.00   0.0   0.009   0.000   29.4    43    0.00   699    1    100.0   30 
 3/04/20  9:00p   17.2   17.9   17.2    86   14.8   1.6   NNE  0.80  24.1   NNE   17.2   17.4   17.4   16.2  1010.9  0.25   2.5     0     0.00      0     0.0  0.00   0.0   0.024   0.000   29.3    43    0.03   701    1    100.0   30 
 3/04/20  9:30p   16.7   17.2   16.7    89   14.9   0.0   NNW  0.00  19.3   NNW   16.7   17.0   17.0   15.8  1010.7  1.02   3.0     0     0.00      0     0.0  0.00   0.0   0.034   0.000   29.3    43    0.00   696    1    100.0   30 
 3/04/20 10:00p   16.4   16.7   16.4    91   14.9   0.0   ---  0.00   0.0   ---   16.4   16.7   16.7   15.4  1010.2  1.27   4.8     0     0.00      0     0.0  0.00   0.0   0.041   0.000   29.3    43    0.00   690    1    100.0   30 
 3/04/20 10:30p   16.2   16.4   16.2    93   15.0   0.0   ---  0.00   0.0   ---   16.2   16.4   16.4   15.3  1010.1  2.54   8.9     0     0.00      0     0.0  0.00   0.0   0.045   0.000   29.2    43    0.00   665    1     97.2   30 
 3/04/20 11:00p   16.1   16.3   16.1    93   15.0   0.0   NNW  0.00  16.1   NNW   16.1   16.4   16.4   15.2  1009.8  7.11  36.8     0     0.00      0     0.0  0.00   0.0   0.046   0.000   29.2    43    0.00   622    1     90.9   30 
 3/04/20 11:30p   15.7   16.1   15.7    94   14.7   0.0    SW  0.00  20.9    SW   15.7   15.9   15.9   14.7  1009.5  5.33  56.4     0     0.00      0     0.0  0.00   0.0   0.056   0.000   29.1    43    0.00   618    1     90.4   30 
 4/04/20 12:00a   14.3   15.7   14.3    93   13.2   3.2    SW  1.61  35.4     W   14.3   14.4   14.4   13.1  1010.2  7.62  75.7     0     0.00      0     0.0  0.00   0.0   0.084   0.000   29.1    43    0.00   620    1     90.6   30 
 4/04/20 12:30a   13.6   14.3   13.6    93   12.5   1.6   WSW  0.80  19.3   WNW   13.6   13.7   13.7   12.4  1010.2  3.30  11.4     0     0.00      0     0.0  0.00   0.0   0.098   0.000   28.9    43    0.00   623    1     91.1   30 
 4/04/20  1:00a   13.2   13.6   13.2    94   12.3   0.0   ---  0.00   0.0   ---   13.2   13.3   13.3   12.0  1010.2  3.30   8.6     0     0.00      0     0.0  0.00   0.0   0.106   0.000   28.8    43    0.00   634    1     92.7   30 
 4/04/20  1:30a   12.9   13.3   12.9    94   11.9   0.0   ---  0.00   0.0   ---   12.9   13.0   13.0   11.7  1009.9  2.54   7.6     0     0.00      0     0.0  0.00   0.0   0.113   0.000   28.7    43    0.00   629    1     92.0   30 
 4/04/20  2:00a   12.9   12.9   12.9    95   12.2   0.0   ---  0.00   0.0   ---   12.9   13.1   13.1   11.7  1009.6  3.56   9.7     0     0.00      0     0.0  0.00   0.0   0.112   0.000   28.6    43    0.00   643    1     94.0   30 
 4/04/20  2:30a   12.7   12.9   12.7    95   11.9   0.0   SSE  0.00  12.9     S   12.7   12.8   12.8   11.4  1008.9  2.79  13.0     0     0.00      0     0.0  0.00   0.0   0.118   0.000   28.5    43    0.00   626    1     91.5   30 
 4/04/20  3:00a   12.7   12.7   12.6    95   11.9   0.0   ---  0.00   0.0   ---   12.7   12.8   12.8   11.4  1008.9  2.79   7.9     0     0.00      0     0.0  0.00   0.0   0.118   0.000   28.4    43    0.00   636    1     93.0   30 
 4/04/20  3:30a   12.6   12.7   12.6    96   12.0   0.0   ---  0.00   0.0   ---   12.6   12.7   12.7   11.4  1008.7  1.78   4.8     0     0.00      0     0.0  0.00   0.0   0.119   0.000   28.3    43    0.00   629    1     92.0   30 
 4/04/20  4:00a   12.6   12.7   12.6    96   12.0   0.0   ---  0.00   0.0   ---   12.6   12.7   12.7   11.4  1008.1  0.76   4.8     0     0.00      0     0.0  0.00   0.0   0.119   0.000   28.2    43    0.00   641    1     93.7   30 
 4/04/20  4:30a   12.3   12.6   12.3    96   11.7   0.0   ---  0.00   0.0   ---   12.3   12.4   12.4   11.1  1008.2  0.00   0.0     0     0.00      0     0.0  0.00   0.0   0.126   0.000   28.1    43    0.00   644    1     94.2   30 
 4/04/20  5:00a   12.3   12.3   12.2    96   11.7   0.0   ---  0.00   0.0   ---   12.3   12.4   12.4   11.1  1008.6  0.00   0.0     0     0.00      0     0.0  0.00   0.0   0.125   0.000   27.9    42    0.00   639    1     93.4   30 
 4/04/20  5:30a   12.4   12.4   12.3    96   11.8   0.0   SSE  0.00   6.4   SSE   12.4   12.5   12.5   11.2  1008.6  0.00   0.0     0     0.00      0     0.0  0.00   0.0   0.124   0.000   27.8    42    0.00   637    1     93.1   30 
 4/04/20  6:00a   12.4   12.4   12.3    96   11.8   0.0   ---  0.00   0.0   ---   12.4   12.6   12.6   11.2  1009.0  0.00   0.0     0     0.00      0     0.0  0.00   0.0   0.123   0.000   27.8    42    0.00   628    1     91.8   30 
 4/04/20  6:30a   12.3   12.4   12.3    96   11.7   0.0   ---  0.00   0.0   ---   12.3   12.4   12.4   11.1  1009.3  0.25   0.0     0     0.00      0     0.0  0.00   0.0   0.125   0.000   27.8    42    0.00   622    1     90.9   30 
 4/04/20  7:00a   12.3   12.4   12.3    96   11.7   0.0   ---  0.00   0.0   ---   12.3   12.4   12.4   11.6  1009.6  0.00   0.0     7     0.30     16     0.0  0.00   0.0   0.125   0.000   27.7    42    0.00   628    1     91.8   30 
 4/04/20  7:30a   12.4   12.5   12.3    97   12.0   0.0   ---  0.00   0.0   ---   12.4   12.6   12.6   12.5  1010.0  0.00   0.0    39     1.68     58     0.0  0.00   0.0   0.123   0.000   27.7    42    0.00   632    1     92.4   30 
 4/04/20  8:00a   12.5   12.6   12.4    96   11.9   0.0   SSE  0.00  16.1     N   12.5   12.6   12.6   12.5  1010.7  0.00   0.0    45     1.94     60     0.0  0.00   0.0   0.122   0.000   27.7    42    0.03   643    1     94.0   30 
 4/04/20  8:30a   12.9   12.9   12.4    95   12.2   3.2   WSW  1.61  38.6   WNW   12.9   13.1   13.1   15.5  1011.1  0.00   0.0   190     8.17    309     0.0  0.00   0.0   0.112   0.000   27.6    42    0.00   674    1     98.5   30 
 4/04/20  9:00a   13.2   13.3   12.9    92   11.9   3.2   WSW  1.61  40.2     W   13.2   13.2   13.2   14.4  1011.6  0.00   0.0   126     5.42    195     0.0  0.00   0.0   0.108   0.000   27.7    42    0.08   700    1    100.0   30 
 4/04/20  9:30a   12.9   13.2   12.9    90   11.3   3.2     W  1.61  35.4     W   12.9   12.9   12.9   13.7  1012.2  0.25   0.0   112     4.82    223     0.1  0.02   0.6   0.113   0.000   27.7    42    0.00   697    1    100.0   30 
 4/04/20 10:00a   12.8   12.9   12.6    92   11.5   1.6   WNW  0.80  30.6     W   12.8   12.8   12.8   14.4  1012.2  0.00   0.0   179     7.70    288     0.6  0.13   1.2   0.116   0.000   27.7    42    0.08   670    1     98.0   30 
 4/04/20 10:30a   13.8   13.8   12.7    85   11.3   4.8    SW  2.41  38.6     W   13.8   13.7   13.7   17.4  1012.3  0.00   0.0   360    15.48    598     1.6  0.34   2.7   0.095   0.000   27.7    42    0.00   695    1    100.0   30 
 4/04/20 11:00a   15.0   15.0   13.8    75   10.6   8.0    SW  4.02  46.7    SW   14.9   14.7   14.3   18.3  1012.4  0.00   0.0   399    17.16    701     2.2  0.47   3.6   0.069   0.000   27.8    42    0.00   662    1     96.8   30 
 4/04/20 11:30a   15.1   15.1   14.8    72   10.0   8.0   WSW  4.02  38.6   WSW   14.9   14.7   14.3   17.8  1012.5  0.00   0.0   353    15.18    691     2.0  0.43   3.9   0.068   0.000   27.8    42    0.20   695    1    100.0   30 
 4/04/20 12:00p   15.6   15.9   15.1    64    8.8  11.3    SW  5.63  53.1   WSW   15.1   15.0   14.2   17.8  1012.5  0.00   0.0   386    16.60    733     2.1  0.45   3.0   0.058   0.000   27.8    42    0.25   701    1    100.0   30 
 4/04/20 12:30p   14.6   15.6   14.4    66    8.3  12.9   WSW  6.44  57.9     W   13.8   14.0   12.7   14.9  1012.9  0.00   0.0   265    11.40    487     1.7  0.36   3.8   0.079   0.000   27.9    41    0.00   700    1    100.0   30 
 4/04/20  1:00p   13.4   14.6   13.3    72    8.4   4.8   WSW  2.41  38.6    SW   13.4   13.0   12.9   16.1  1012.8  0.25   0.0   325    13.98    568     1.7  0.36   3.1   0.103   0.000   27.9    41    0.20   700    1    100.0   30 
 4/04/20  1:30p   15.9   15.9   13.4    63    8.9   3.2   WSW  1.61  29.0   NNE   15.9   15.4   15.4   21.1  1012.6  0.00   0.0   744    32.00    793     3.4  0.73   3.6   0.050   0.000   27.9    41    0.00   701    1    100.0   30 
 4/04/20  2:00p   10.8   16.3   10.8    82    7.9  11.3    SW  5.63  66.0     W    9.4   10.8    9.4   11.3  1014.1  3.05  25.4   219     9.42    912     1.0  0.21   3.6   0.156   0.000   27.9    41    0.28   677    1     99.0   30 
 4/04/20  2:30p   10.5   10.8   10.3    88    8.6   6.4    SW  3.22  56.3   SSW    9.9   10.6    9.9   10.6  1014.8  0.25   6.1   116     4.99    223     0.3  0.06   1.0   0.163   0.000   28.1    40    0.00   626    1     91.5   30 
 4/04/20  3:00p   10.6   10.7   10.5    87    8.5   1.6     W  0.80  27.4     W   10.6   10.7   10.7   11.7  1014.8  0.00   0.0   135     5.81    199     0.2  0.04   0.8   0.161   0.000   27.8    40    0.08   683    1     99.9   30 
 4/04/20  3:30p   11.2   11.2   10.7    86    8.9   1.6    SW  0.80  33.8    SW   11.2   11.2   11.2   12.9  1014.8  0.00   0.0   165     7.10    193     0.0  0.00   0.5   0.149   0.000   27.8    40    0.00   691    1    100.0   30 
 4/04/20  4:00p   11.8   11.8   11.2    84    9.2   0.0     W  0.00  17.7   WNW   11.8   11.8   11.8   13.7  1014.9  0.00   0.0   158     6.79    281     0.1  0.02   0.7   0.135   0.000   27.7    40    0.08   696    1    100.0   30 
 4/04/20  4:30p   10.1   12.7   10.1    84    7.5   9.7   WSW  4.83  86.9   WSW    8.8   10.1    8.8   10.1  1016.3  1.02  13.5   111     4.77    461     0.1  0.02   0.7   0.172   0.000   27.7    40    0.00   667    1     97.5   30 
 4/04/20  5:00p    9.3   10.1    9.3    87    7.3   3.2     W  1.61  40.2     W    9.3    9.4    9.4    9.8  1016.8  0.00   0.0    62     2.67    149     0.0  0.00   0.0   0.188   0.000   27.6    40    0.05   602    1     88.0   30 
 4/04/20  5:30p    9.3    9.4    9.3    86    7.1   0.0   WSW  0.00  22.5     W    9.3    9.4    9.4    8.4  1017.9  0.00   0.0    44     1.89    100     0.0  0.00   0.0   0.188   0.000   27.4    40    0.00   633    1     92.5   30 
 4/04/20  6:00p    9.4    9.4    9.3    83    6.7   3.2     W  1.61  43.5   WNW    9.4    9.4    9.4    8.2  1017.7  0.00   0.0    25     1.08     37     0.0  0.00   0.0   0.185   0.000   27.2    40    0.03   650    1     95.0   30 
 4/04/20  6:30p    9.1    9.4    9.1    83    6.3   1.6     W  0.80  30.6     W    9.1    9.1    9.1    7.4  1018.6  0.00   0.0     1     0.04      5     0.0  0.00   0.0   0.193   0.000   27.1    40    0.00   620    1     90.6   30 
 4/04/20  7:00p    8.8    9.1    8.8    85    6.4   0.0   NNW  0.00  17.7   NNW    8.8    8.8    8.8    7.2  1019.2  0.00   0.0     0     0.00      0     0.0  0.00   0.0   0.199   0.000   26.9    39    0.00   643    1     94.0   30 
 4/04/20  7:30p    8.7    8.8    8.7    86    6.5   0.0   NNW  0.00   9.7   NNW    8.7    8.7    8.7    7.1  1019.7  0.00   0.0     0     0.00      0     0.0  0.00   0.0   0.201   0.000   26.7    39    0.00   673    1     98.4   30 
 4/04/20  8:00p    9.2    9.3    8.7    81    6.1   0.0    NW  0.00  16.1    NW    9.2    9.2    9.2    7.6  1020.2  0.00   0.0     0     0.00      0     0.0  0.00   0.0   0.190   0.000   26.5    39    0.00   680    1     99.4   30 
 4/04/20  8:30p    9.1    9.3    9.1    80    5.8   0.0   WNW  0.00  14.5   WNW    9.1    9.1    9.1    7.4  1020.4  0.00   0.0     0     0.00      0     0.0  0.00   0.0   0.192   0.000   26.3    39    0.00   667    1     97.5   30 
 4/04/20  9:00p    9.0    9.2    9.0    81    5.9   0.0   NNW  0.00   3.2   NNW    9.0    8.9    8.9    7.3  1020.9  0.00   0.0     0     0.00      0     0.0  0.00   0.0   0.194   0.000   26.2    39    0.03   689    1    100.0   30 
 4/04/20  9:30p    8.1    8.9    8.1    85    5.7   0.0   ---  0.00   0.0   ---    8.1    8.1    8.1    6.4  1021.2  0.00   0.0     0     0.00      0     0.0  0.00   0.0   0.214   0.000   26.0    39    0.00   686    1    100.0   30 
 4/04/20 10:00p    7.4    8.1    7.4    87    5.4   0.0   ---  0.00   0.0   ---    7.4    7.4    7.4    5.7  1021.4  0.00   0.0     0     0.00      0     0.0  0.00   0.0   0.228   0.000   25.8    39    0.00   696    1    100.0   30 
 4/04/20 10:30p    8.3    8.3    7.4    84    5.8   0.0   NNW  0.00  22.5   NNW    8.3    8.3    8.3    6.7  1021.5  0.00   0.0     0     0.00      0     0.0  0.00   0.0   0.208   0.000   25.7    39    0.00   694    1    100.0   30 
 4/04/20 11:00p    8.6    8.6    8.3    83    5.8   0.0   NNW  0.00   9.7   NNW    8.6    8.5    8.5    6.9  1021.4  0.00   0.0     0     0.00      0     0.0  0.00   0.0   0.204   0.000   25.5    39    0.00   697    1    100.0   30 
 4/04/20 11:30p    9.2    9.2    8.6    80    5.9   0.0   NNW  0.00  22.5   NNW    9.2    9.2    9.2    7.6  1021.5  0.00   0.0     0     0.00      0     0.0  0.00   0.0   0.190   0.000   25.4    39    0.00   678    1     99.1   30 
 5/04/20 12:00a    9.2    9.3    9.2    78    5.6   0.0     N  0.00  20.9     N    9.2    9.1    9.1    7.5  1021.4  0.00   0.0     0     0.00      0     0.0  0.00   0.0   0.190   0.000   25.3    39    0.03   687    1    100.0   30 
 5/04/20 12:30a    9.5    9.5    9.2    77    5.7   1.6     N  0.80  25.7     N    9.5    9.4    9.4    7.8  1021.3  0.00   0.0     0     0.00      0     0.0  0.00   0.0   0.184   0.000   25.3    38    0.00   675    1     98.7   30 
 5/04/20  1:00a    9.5    9.6    9.5    77    5.7   1.6     N  0.80  19.3   NNW    9.5    9.4    9.4    7.8  1021.3  0.00   0.0     0     0.00      0     0.0  0.00   0.0   0.184   0.000   25.3    38    0.00   677    1     99.0   30 
 5/04/20  1:30a    9.2    9.5    9.2    78    5.5   0.0   NNW  0.00   9.7   NNW    9.2    9.1    9.1    7.4  1021.3  0.00   0.0     0     0.00      0     0.0  0.00   0.0   0.191   0.000   25.2    38    0.03   701    1    100.0   30 
 5/04/20  2:00a    9.2    9.2    9.1    78    5.5   0.0   NNW  0.00  12.9   NNW    9.2    9.1    9.1    7.4  1020.8  0.00   0.0     0     0.00      0     0.0  0.00   0.0   0.191   0.000   25.1    38    0.03   680    1     99.4   30 
 5/04/20  2:30a    9.7    9.7    9.2    77    5.8   3.2   NNW  1.61  25.7   NNW    9.7    9.6    9.6    7.9  1020.8  0.00   0.0     0     0.00      0     0.0  0.00   0.0   0.181   0.000   25.1    38    0.00   702    1    100.0   30 
 5/04/20  3:00a   10.1   10.1    9.7    76    6.0   8.0     N  4.02  40.2     N    9.1    9.9    9.0    7.3  1020.5  0.00   0.0     0     0.00      0     0.0  0.00   0.0   0.172   0.000   25.0    38    0.03   700    1    100.0   30 
 5/04/20  3:30a   10.2   10.2   10.1    77    6.3   8.0     N  4.02  38.6    NE    9.2   10.1    9.1    7.4  1020.4  0.00   0.0     0     0.00      0     0.0  0.00   0.0   0.170   0.000   25.0    38    0.00   699    1    100.0   30 
 5/04/20  4:00a   10.1   10.2   10.0    78    6.4   6.4   NNW  3.22  35.4   NNE    9.4   10.0    9.4    7.8  1020.1  0.25   0.0     0     0.00      0     0.0  0.00   0.0   0.172   0.000   24.9    38    0.03   676    1     98.8   30 
 5/04/20  4:30a    9.9   10.1    9.9    79    6.5  16.1   NNE  8.05  53.1    NE    7.7    9.9    7.7    6.3  1019.7  0.00   0.0     0     0.00      0     0.0  0.00   0.0   0.175   0.000   24.9    38    0.00   702    1    100.0   30 
 5/04/20  5:00a   10.1   10.1    9.9    78    6.4  14.5     N  7.24  45.1    NE    8.1   10.0    8.0    6.6  1019.6  0.00   0.0     0     0.00      0     0.0  0.00   0.0   0.172   0.000   24.9    38    0.05   701    1    100.0   30 
 5/04/20  5:30a   10.3   10.3   10.1    78    6.6  11.3     N  5.63  46.7     W    8.8   10.2    8.7    7.1  1019.9  0.00   0.0     0     0.00      0     0.0  0.00   0.0   0.168   0.000   24.9    38    0.00   675    1     98.7   30 
 5/04/20  6:00a   10.4   10.6   10.3    77    6.6  20.9     N 10.46  62.8     N    7.9   10.3    7.7    6.4  1019.5  0.00   0.0     0     0.00      0     0.0  0.00   0.0   0.164   0.000   24.9    37    0.05   703    1    100.0   30 
 5/04/20  6:30a   10.3   10.4   10.3    79    6.8  17.7     N  8.85  64.4   NNE    8.1   10.3    8.0    6.6  1019.6  0.00   0.0     0     0.00      0     0.0  0.00   0.0   0.167   0.000   24.8    37    0.00   698    1    100.0   30 
 5/04/20  7:00a   10.3   10.3   10.3    80    7.0  14.5   NNE  7.24  51.5     N    8.4   10.3    8.3    7.4  1019.4  0.00   0.0    11     0.47     32     0.0  0.00   0.0   0.167   0.000   24.9    37    0.05   700    1    100.0   30 
 5/04/20  7:30a   10.8   10.8   10.3    80    7.5  20.9     N 10.46  57.9   NNW    8.3   10.7    8.1    7.8  1019.6  0.00   0.0    33     1.42     58     0.0  0.00   0.0   0.157   0.000   24.9    37    0.00   678    1     99.1   30 
 5/04/20  8:00a   10.9   10.9   10.8    81    7.8  20.9     N 10.46  56.3   NNE    8.4   10.8    8.3    8.1  1020.1  0.00   0.0    43     1.85     90     0.0  0.00   0.0   0.155   0.000   24.9    37    0.05   699    1    100.0   30 
 5/04/20  8:30a   11.6   11.6   10.9    81    8.5  20.9     N 10.46  54.7   NNW    9.3   11.5    9.0    9.8  1020.2  0.00   0.0   111     4.77    151     0.0  0.00   0.0   0.140   0.000   24.9    37    0.00   673    1     98.4   30 
 5/04/20  9:00a   12.8   12.9   11.6    78    9.1  24.1     N 12.07  74.0   NNE   10.7   12.6    9.8   11.2  1020.3  0.00   0.0   173     7.44    188     0.1  0.02   0.5   0.115   0.000   25.0    37    0.13   702    1    100.0   30 
 5/04/20  9:30a   13.7   13.7   12.9    76    9.6  29.0     N 14.48  83.7   NNW   11.5   13.4   10.2   12.2  1020.3  0.00   0.0   264    11.35    432     0.9  0.19   1.1   0.096   0.000   25.1    37    0.00   702    1    100.0   30 
 5/04/20 10:00a   13.9   13.9   13.6    76    9.8  20.9   NNW 10.46  69.2   NNE   12.3   13.7   11.3   13.1  1020.3  0.00   0.0   233    10.02    339     1.0  0.21   1.3   0.091   0.000   25.2    37    0.20   673    1     98.4   30 
 5/04/20 10:30a   14.3   14.3   13.9    76   10.1  24.1     N 12.07  85.3    NW   12.5   14.1   11.3   13.1  1020.3  0.00   0.0   248    10.67    387     1.1  0.24   1.8   0.084   0.000   25.4    37    0.00   703    1    100.0   30 
 5/04/20 11:00a   14.7   14.7   14.3    76   10.5  22.5     N 11.27  72.4   NNW   13.2   14.5   12.0   13.9  1020.4  0.00   0.0   269    11.57    371     1.4  0.30   1.8   0.075   0.000   25.5    37    0.20   702    1    100.0   30 
 5/04/20 11:30a   14.8   15.3   14.7    79   11.2  22.5   NNW 11.27  69.2     N   13.2   14.6   12.1   14.5  1020.7  0.00   0.0   320    13.76    524     1.7  0.36   2.4   0.074   0.000   25.7    37    0.00   697    1    100.0   30 
 5/04/20 12:00p   15.1   15.1   14.3    78   11.2  22.5     N 11.27  64.4     N   13.6   14.9   12.4   14.9  1020.5  0.00   0.0   332    14.28    432     1.8  0.39   2.3   0.068   0.000   25.9    37    0.23   700    1    100.0   30 
 5/04/20 12:30p   15.6   15.6   15.1    78   11.7  20.9     N 10.46  70.8    NE   14.3   15.4   13.2   16.0  1020.4  0.00   0.0   355    15.27    454     2.0  0.43   2.3   0.058   0.000   26.1    37    0.00   701    1    100.0   30 
 5/04/20  1:00p   14.9   15.8   14.8    83   12.0  17.7   NNW  8.85  61.2     N   13.7   14.8   12.9   14.6  1020.5  0.00   0.0   218     9.38    392     1.2  0.26   2.0   0.072   0.000   26.2    37    0.20   673    1     98.4   30 
 5/04/20  1:30p   14.6   14.9   14.6    87   12.4   8.0   NNW  4.02  53.1   WSW   14.3   14.6   14.1   14.4  1020.7  3.05  36.8    99     4.26    141     0.3  0.06   0.7   0.079   0.000   26.3    38    0.00   699    1    100.0   30 
 5/04/20  2:00p   14.4   14.5   14.2    91   13.0   3.2   NNW  1.61  29.0     N   14.4   14.5   14.5   14.8  1020.7  3.81  34.5    91     3.91    156     0.3  0.06   0.9   0.081   0.000   26.4    38    0.05   666    1     97.4   30 
 5/04/20  2:30p   14.2   14.6   14.2    92   12.9   1.6   WSW  0.80  24.1   WSW   14.2   14.3   14.3   14.9  1021.3  4.83  74.2   106     4.56    221     0.3  0.06   1.0   0.087   0.000   26.5    38    0.00   631    1     92.3   30 
 5/04/20  3:00p   14.1   14.3   14.1    93   13.0   3.2     W  1.61  29.0     W   14.1   14.2   14.2   15.3  1021.7  0.51   2.0   129     5.55    204     0.3  0.06   0.9   0.088   0.000   26.5    38    0.05   632    1     92.4   30 
 5/04/20  3:30p   14.1   14.2   14.1    93   13.0   0.0     W  0.00  24.1   WNW   14.1   14.2   14.2   15.4  1021.8  0.25   1.0   119     5.12    169     0.1  0.02   0.6   0.088   0.000   26.6    38    0.00   665    1     97.2   30 
 5/04/20  4:00p   14.2   14.3   14.1    93   13.1   1.6   WSW  0.80  20.9   NNW   14.2   14.3   14.3   15.8  1022.0  0.51   0.0   126     5.42    243     0.1  0.02   0.6   0.086   0.000   26.7    39    0.05   668    1     97.7   30 
 5/04/20  4:30p   14.6   14.6   14.3    93   13.5   0.0   ---  0.00   0.0   ---   14.6   14.7   14.7   16.2  1022.3  0.00   0.0   114     4.90    169     0.0  0.00   0.0   0.078   0.000   26.7    39    0.00   665    1     97.2   30 
 5/04/20  5:00p   14.4   14.6   14.3    92   13.2   1.6     W  0.80  41.8   SSW   14.4   14.6   14.6   15.7  1022.8  0.00   0.0    88     3.78    149     0.0  0.00   0.0   0.081   0.000   26.8    39    0.05   698    1    100.0   30 
 5/04/20  5:30p   14.4   14.5   14.4    92   13.2   0.0     W  0.00   8.0     W   14.4   14.6   14.6   13.6  1023.4  0.00   0.0    28     1.20     47     0.0  0.00   0.0   0.081   0.000   26.8    39    0.00   700    1    100.0   30 
 5/04/20  6:00p   14.3   14.4   14.2    91   12.8   0.0   ---  0.00   0.0   ---   14.3   14.3   14.3   13.1  1023.9  0.00   0.0    11     0.47     19     0.0  0.00   0.0   0.084   0.000   26.8    39    0.00   700    1    100.0   30 
 5/04/20  6:30p   13.8   14.3   13.8    91   12.4   0.0   WNW  0.00  25.7   WNW   13.8   13.9   13.9   12.5  1024.9  0.25   0.0     0     0.00      5     0.0  0.00   0.0   0.094   0.000   26.8    40    0.00   699    1    100.0   30 
 5/04/20  7:00p   13.7   13.8   13.7    90   12.1   0.0   WNW  0.00  11.3   WNW   13.7   13.7   13.7   12.3  1025.6  0.00   0.0     0     0.00      0     0.0  0.00   0.0   0.097   0.000   26.8    40    0.00   700    1    100.0   30 
 5/04/20  7:30p   13.2   13.7   13.2    91   11.8   0.0     S  0.00  19.3     S   13.2   13.3   13.3   11.8  1026.7  0.25   0.0     0     0.00      0     0.0  0.00   0.0   0.106   0.000   26.7    40    0.00   691    1    100.0   30 
 5/04/20  8:00p   12.7   13.2   12.7    92   11.5   0.0     S  0.00  12.9     S   12.7   12.8   12.8   11.3  1027.2  0.25   0.0     0     0.00      0     0.0  0.00   0.0   0.117   0.000   26.7    40    0.00   679    1     99.3   30 
 5/04/20  8:30p   12.6   12.7   12.6    93   11.5   0.0   ---  0.00   0.0   ---   12.6   12.7   12.7   11.3  1027.3  0.00   0.0     0     0.00      0     0.0  0.00   0.0   0.119   0.000   26.6    40    0.00   697    1    100.0   30 
 5/04/20  9:00p   12.3   12.6   12.3    93   11.2   0.0   ---  0.00   0.0   ---   12.3   12.4   12.4   11.0  1027.8  0.00   0.0     0     0.00      0     0.0  0.00   0.0   0.125   0.000   26.6    40    0.00   697    1    100.0   30 
 5/04/20  9:30p   12.2   12.3   12.2    94   11.3   0.0   ---  0.00   0.0   ---   12.2   12.3   12.3   10.9  1028.2  0.00   0.0     0     0.00      0     0.0  0.00   0.0   0.127   0.000   26.5    40    0.00   700    1    100.0   30 
 5/04/20 10:00p   12.0   12.2   12.0    94   11.1   0.0   ---  0.00   0.0   ---   12.0   12.1   12.1   10.6  1028.5  0.00   0.0     0     0.00      0     0.0  0.00   0.0   0.132   0.000   26.5    40    0.00   701    1    100.0   30 
 5/04/20 10:30p   11.9   12.0   11.9    94   11.0   0.0   ---  0.00   0.0   ---   11.9   12.1   12.1   10.6  1028.6  0.00   0.0     0     0.00      0     0.0  0.00   0.0   0.133   0.000   26.4    40    0.00   673    1     98.4   30 
 5/04/20 11:00p   12.0   12.1   11.9    94   11.1   0.0     S  0.00   8.0     S   12.0   12.1   12.1   10.6  1028.7  0.00   0.0     0     0.00      0     0.0  0.00   0.0   0.132   0.000   26.4    40    0.00   702    1    100.0   30 
 5/04/20 11:30p   11.9   12.0   11.9    94   11.0   0.0   ---  0.00   0.0   ---   11.9   12.1   12.1   10.6  1028.9  0.00   0.0     0     0.00      0     0.0  0.00   0.0   0.133   0.000   26.3    40    0.00   699    1    100.0   30 
 6/04/20 12:00a   11.9   11.9   11.8    94   11.0   0.0   ---  0.00   0.0   ---   11.9   12.0   12.0   10.5  1028.9  0.00   0.0     0     0.00      0     0.0  0.00   0.0   0.134   0.000   26.3    41    0.00   696    1    100.0   30 
 6/04/20 12:30a   11.8   11.9   11.8    94   10.9   0.0   ---  0.00   0.0   ---   11.8   11.9   11.9   10.4  1029.0  0.00   0.0     0     0.00      0     0.0  0.00   0.0   0.135   0.000   26.2    41    0.00   699    1    100.0   30 
 6/04/20  1:00a   11.3   11.8   11.3    93   10.2   0.0   ---  0.00   0.0   ---   11.3   11.4   11.4    9.9  1029.4  0.00   0.0     0     0.00      0     0.0  0.00   0.0   0.147   0.000   26.2    41    0.00   697    1    100.0   30 
 6/04/20  1:30a   10.5   11.3   10.4    93    9.4   0.0   ---  0.00   0.0   ---   10.5   10.7   10.7    9.1  1029.5  0.00   0.0     0     0.00      0     0.0  0.00   0.0   0.163   0.000   26.1    41    0.00   700    1    100.0   30 
 6/04/20  2:00a    9.7   10.4    9.7    94    8.7   0.0   ---  0.00   0.0   ---    9.7    9.9    9.9    8.4  1029.6  0.00   0.0     0     0.00      0     0.0  0.00   0.0   0.181   0.000   26.0    41    0.00   701    1    100.0   30 
 6/04/20  2:30a    9.5    9.7    9.5    94    8.6   0.0   ---  0.00   0.0   ---    9.5    9.8    9.8    8.2  1029.8  0.00   0.0     0     0.00      0     0.0  0.00   0.0   0.184   0.000   25.8    41    0.00   700    1    100.0   30 
 6/04/20  3:00a    9.2    9.5    9.2    95    8.4   0.0   ---  0.00   0.0   ---    9.2    9.4    9.4    7.9  1030.1  0.00   0.0     0     0.00      0     0.0  0.00   0.0   0.191   0.000   25.7    41    0.00   699    1    100.0   30 
 6/04/20  3:30a    9.2    9.2    9.1    95    8.4   0.0   ---  0.00   0.0   ---    9.2    9.4    9.4    7.9  1030.3  0.00   0.0     0     0.00      0     0.0  0.00   0.0   0.191   0.000   25.6    41    0.00   701    1    100.0   30 
 6/04/20  4:00a    8.9    9.2    8.9    95    8.2   0.0   ---  0.00   0.0   ---    8.9    9.2    9.2    7.6  1030.8  0.00   0.0     0     0.00      0     0.0  0.00   0.0   0.196   0.000   25.5    41    0.00   700    1    100.0   30 
 6/04/20  4:30a    8.4    8.9    8.4    95    7.7   0.0   ---  0.00   0.0   ---    8.4    8.6    8.6    7.0  1031.2  0.00   0.0     0     0.00      0     0.0  0.00   0.0   0.206   0.000   25.4    41    0.00   701    1    100.0   30 
 6/04/20  5:00a    8.1    8.4    8.1    95    7.4   0.0   ---  0.00   0.0   ---    8.1    8.3    8.3    6.7  1031.5  0.00   0.0     0     0.00      0     0.0  0.00   0.0   0.213   0.000   25.3    40    0.00   699    1    100.0   30 
 6/04/20  5:30a    8.1    8.2    7.9    96    7.5   0.0   ---  0.00   0.0   ---    8.1    8.2    8.2    6.6  1031.9  0.00   0.0     0     0.00      0     0.0  0.00   0.0   0.214   0.000   25.2    40    0.00   699    1    100.0   30 
 6/04/20  6:00a    8.3    8.4    8.1    96    7.7   0.0   ---  0.00   0.0   ---    8.3    8.5    8.5    6.9  1032.5  0.00   0.0     0     0.00      0     0.0  0.00   0.0   0.208   0.000   25.1    40    0.00   699    1    100.0   30 
 6/04/20  6:30a    7.7    8.3    7.7    95    6.9   0.0   ---  0.00   0.0   ---    7.7    7.8    7.8    6.2  1032.8  0.00   0.0     0     0.00      0     0.0  0.00   0.0   0.222   0.000   25.0    40    0.00   702    1    100.0   30 
 6/04/20  7:00a    7.6    7.7    7.3    96    7.0   0.0   ---  0.00   0.0   ---    7.6    7.8    7.8    6.7  1033.4  0.00   0.0     8     0.34     19     0.0  0.00   0.0   0.223   0.000   24.9    40    0.00   700    1    100.0   30 
 6/04/20  7:30a    8.6    8.6    7.6    96    8.0   0.0   ---  0.00   0.0   ---    8.6    8.8    8.8    8.6  1033.8  0.00   0.0    41     1.76     74     0.0  0.00   0.0   0.204   0.000   24.8    40    0.00   698    1    100.0   30 
 6/04/20  8:00a    9.6    9.6    8.6    96    8.9   0.0   ---  0.00   0.0   ---    9.6    9.8    9.8   11.1  1034.3  0.00   0.0   113     4.86    169     0.0  0.00   0.0   0.183   0.000   24.8    40    0.03   699    1    100.0   30 
 6/04/20  8:30a   11.0   11.1    9.5    97   10.5   0.0     S  0.00   9.7     S   11.0   11.2   11.2   14.4  1034.5  0.00   0.0   235    10.11    311     0.1  0.02   0.5   0.153   0.000   24.9    40    0.00   701    1    100.0   30 
 6/04/20  9:00a   11.6   11.6   10.9    96   11.0   1.6     S  0.80  16.1     S   11.6   11.8   11.8   16.3  1034.7  0.00   0.0   360    15.48    417     0.8  0.17   1.0   0.140   0.000   25.0    40    0.13   703    1    100.0   30 
 6/04/20  9:30a   13.2   13.2   11.6    86   10.9   1.6   SSW  0.80  22.5   SSW   13.2   13.2   13.2   16.9  1034.8  0.00   0.0   320    13.76    554     0.9  0.19   1.3   0.106   0.000   25.2    40    0.00   700    1    100.0   30 
 6/04/20 10:00a   14.3   14.3   13.2    77   10.3   0.0   SSW  0.00   9.7   SSW   14.3   14.1   14.1   17.4  1034.9  0.00   0.0   314    13.50    478     1.4  0.30   2.2   0.084   0.000   25.5    40    0.15   700    1    100.0   30 
 6/04/20 10:30a   14.6   15.1   14.3    74   10.0   0.0   SSW  0.00   1.6   SSW   14.6   14.3   14.3   17.6  1035.1  0.00   0.0   318    13.68    659     1.6  0.34   2.5   0.078   0.000   25.7    40    0.00   701    1    100.0   30 
 6/04/20 11:00a   15.3   15.3   14.3    66    9.0   0.0   SSE  0.00  14.5   SSE   15.3   14.8   14.8   17.9  1035.1  0.00   0.0   321    13.80   1013     1.8  0.39   3.6   0.064   0.000   25.9    39    0.18   702    1    100.0   30 
 6/04/20 11:30a   15.2   15.3   15.0    61    7.7   1.6     S  0.80  27.4   SSE   15.2   14.5   14.5   16.9  1035.1  0.00   0.0   272    11.70    362     1.6  0.34   2.1   0.066   0.000   26.1    39    0.00   701    1    100.0   30 
 6/04/20 12:00p   15.7   15.7   15.1    61    8.2   1.6   SSE  0.80  27.4   SSE   15.7   15.1   15.1   18.7  1035.1  0.00   0.0   380    16.34    420     2.3  0.49   2.5   0.054   0.000   26.2    39    0.18   702    1    100.0   30 
 6/04/20 12:30p   16.1   16.2   15.7    61    8.6   1.6     S  0.80  20.9     S   16.1   15.5   15.5   19.4  1035.1  0.00   0.0   407    17.50    461     2.5  0.54   2.6   0.046   0.000   26.4    38    0.00   703    1    100.0   30 
 6/04/20  1:00p   16.0   16.2   15.9    61    8.5   1.6     S  0.80  22.5   SSW   16.0   15.4   15.4   19.1  1034.8  0.00   0.0   375    16.13    469     2.1  0.45   2.6   0.049   0.000   26.5    38    0.23   702    1    100.0   30 
 6/04/20  1:30p   16.4   16.5   16.0    59    8.4   1.6     S  0.80  22.5     S   16.4   15.7   15.7   19.7  1034.6  0.00   0.0   392    16.86    415     2.3  0.49   2.9   0.039   0.000   26.6    38    0.00   702    1    100.0   30 
 6/04/20  2:00p   16.6   16.6   16.2    58    8.3   1.6     S  0.80  29.0   WSW   16.6   15.8   15.8   19.0  1034.6  0.00   0.0   313    13.46    455     1.8  0.39   2.8   0.037   0.000   26.8    38    0.20   700    1    100.0   30 
 6/04/20  2:30p   16.1   16.6   16.1    64    9.2   4.8    SW  2.41  33.8    SW   16.1   15.6   15.6   19.3  1034.9  0.00   0.0   346    14.88    406     1.8  0.39   2.1   0.047   0.000   26.9    37    0.00   702    1    100.0   30 
 6/04/20  3:00p   15.8   16.1   15.8    64    9.0   1.6    SW  0.80  33.8   WSW   15.8   15.3   15.3   18.5  1035.0  0.00   0.0   272    11.70    306     1.2  0.26   1.4   0.052   0.000   27.0    37    0.18   702    1    100.0   30 
 6/04/20  3:30p   15.8   15.9   15.7    62    8.6   1.6    SE  0.80  17.7     S   15.8   15.2   15.2   18.2  1035.0  0.00   0.0   236    10.15    248     0.9  0.19   1.1   0.052   0.000   27.0    37    0.00   681    1     99.6   30 
 6/04/20  4:00p   15.7   15.9   15.7    62    8.5   1.6   SSE  0.80  25.7   SSE   15.7   15.1   15.1   18.4  1035.0  0.00   0.0   239    10.28    258     0.7  0.15   0.8   0.054   0.000   27.1    37    0.13   699    1    100.0   30 
 6/04/20  4:30p   15.2   15.7   15.2    67    9.1   1.6   SSE  0.80  25.7   SSE   15.2   14.7   14.7   16.6  1035.1  0.00   0.0   143     6.15    211     0.1  0.02   0.6   0.066   0.000   26.7    37    0.00   700    1    100.0   30 
 6/04/20  5:00p   14.8   15.2   14.8    68    9.0   0.0   SSE  0.00  12.9   SSE   14.8   14.4   14.4   15.2  1035.4  0.00   0.0    80     3.44    104     0.0  0.00   0.0   0.073   0.000   26.0    39    0.08   702    1    100.0   30 
 6/04/20  5:30p   14.6   14.8   14.6    70    9.1   0.0   SSE  0.00   6.4   SSE   14.6   14.1   14.1   13.1  1035.7  0.00   0.0    39     1.68     56     0.0  0.00   0.0   0.079   0.000   25.4    40    0.00   702    1    100.0   30 
 6/04/20  6:00p   14.3   14.6   14.3    70    8.9   0.0   ---  0.00   0.0   ---   14.3   13.8   13.8   12.4  1035.8  0.00   0.0    12     0.52     25     0.0  0.00   0.0   0.084   0.000   25.0    41    0.03   701    1    100.0   30 
 6/04/20  6:30p   13.9   14.3   13.9    78   10.2   0.0   SSE  0.00  11.3   SSE   13.9   13.7   13.7   12.2  1036.2  0.00   0.0     0     0.00      0     0.0  0.00   0.0   0.091   0.000   24.6    42    0.00   698    1    100.0   30 
 6/04/20  7:00p   13.6   13.9   13.6    78    9.8   0.0   ---  0.00   0.0   ---   13.6   13.3   13.3   11.8  1036.3  0.00   0.0     0     0.00      0     0.0  0.00   0.0   0.100   0.000   24.5    41    0.00   699    1    100.0   30 
 6/04/20  7:30p   13.2   13.6   13.2    80    9.8   0.0   ---  0.00   0.0   ---   13.2   13.1   13.1   11.6  1036.6  0.00   0.0     0     0.00      0     0.0  0.00   0.0   0.106   0.000   24.4    41    0.00   700    1    100.0   30 
 6/04/20  8:00p   12.9   13.2   12.9    84   10.2   0.0   ---  0.00   0.0   ---   12.9   12.8   12.8   11.3  1036.8  0.00   0.0     0     0.00      0     0.0  0.00   0.0   0.113   0.000   25.0    41    0.03   698    1    100.0   30 
 6/04/20  8:30p   12.6   12.9   12.6    83    9.8   0.0   ---  0.00   0.0   ---   12.6   12.5   12.5   11.0  1037.2  0.00   0.0     0     0.00      0     0.0  0.00   0.0   0.119   0.000   25.6    40    0.00   701    1    100.0   30 
 6/04/20  9:00p   12.5   12.6   12.5    84    9.9   0.0   ---  0.00   0.0   ---   12.5   12.4   12.4   10.9  1037.3  0.00   0.0     0     0.00      0     0.0  0.00   0.0   0.122   0.000   25.8    40    0.00   701    1    100.0   30 
 6/04/20  9:30p   12.4   12.6   12.4    86   10.1   0.0   ---  0.00   0.0   ---   12.4   12.3   12.3   10.8  1037.4  0.00   0.0     0     0.00      0     0.0  0.00   0.0   0.124   0.000   26.0    40    0.00   703    1    100.0   30 
 6/04/20 10:00p   12.3   12.4   12.3    86   10.0   0.0   ---  0.00   0.0   ---   12.3   12.2   12.2   10.7  1037.3  0.00   0.0     0     0.00      0     0.0  0.00   0.0   0.126   0.000   26.0    40    0.00   699    1    100.0   30 
 6/04/20 10:30p   12.0   12.3   12.0    88   10.1   0.0   ---  0.00   0.0   ---   12.0   12.0   12.0   10.5  1037.2  0.00   0.0     0     0.00      0     0.0  0.00   0.0   0.132   0.000   26.1    39    0.00   700    1    100.0   30 
 6/04/20 11:00p   11.5   12.1   11.5    89    9.7   0.0   ---  0.00   0.0   ---   11.5   11.6   11.6   10.1  1037.1  0.00   0.0     0     0.00      0     0.0  0.00   0.0   0.142   0.000   26.1    39    0.00   698    1    100.0   30 
 6/04/20 11:30p   11.3   11.5   11.2    91    9.9   0.0   ---  0.00   0.0   ---   11.3   11.4   11.4    9.9  1037.2  0.00   0.0     0     0.00      0     0.0  0.00   0.0   0.146   0.000   26.0    39    0.00   700    1    100.0   30 
 7/04/20 12:00a   11.2   11.3   11.2    92    9.9   0.0   ---  0.00   0.0   ---   11.2   11.3   11.3    9.8  1036.9  0.00   0.0     0     0.00      0     0.0  0.00   0.0   0.149   0.000   26.0    39    0.00   700    1    100.0   30 
 7/04/20 12:30a   11.4   11.4   11.2    92   10.1   0.0   ---  0.00   0.0   ---   11.4   11.5   11.5   10.0  1037.1  0.00   0.0     0     0.00      0     0.0  0.00   0.0   0.145   0.000   26.0    39    0.00   702    1    100.0   30 
 7/04/20  1:00a   11.2   11.4   11.2    92   10.0   0.0   ---  0.00   0.0   ---   11.2   11.3   11.3    9.8  1036.9  0.00   0.0     0     0.00      0     0.0  0.00   0.0   0.148   0.000   26.0    39    0.00   678    1     99.1   30 
 7/04/20  1:30a   11.0   11.2   11.0    91    9.6   0.0   ---  0.00   0.0   ---   11.0   11.1   11.1    9.6  1036.8  0.00   0.0     0     0.00      0     0.0  0.00   0.0   0.153   0.000   25.9    39    0.00   700    1    100.0   30 
 7/04/20  2:00a   11.2   11.2   11.0    92    9.9   0.0   ---  0.00   0.0   ---   11.2   11.3   11.3    9.8  1036.6  0.00   0.0     0     0.00      0     0.0  0.00   0.0   0.149   0.000   25.9    39    0.00   700    1    100.0   30 
 7/04/20  2:30a   11.3   11.3   11.1    90    9.7   0.0   ---  0.00   0.0   ---   11.3   11.4   11.4    9.9  1036.5  0.00   0.0     0     0.00      0     0.0  0.00   0.0   0.147   0.000   25.9    39    0.00   701    1    100.0   30 
 7/04/20  3:00a   11.4   11.4   11.3    89    9.7   0.0   ---  0.00   0.0   ---   11.4   11.5   11.5   10.0  1036.4  0.00   0.0     0     0.00      0     0.0  0.00   0.0   0.144   0.000   25.9    39    0.00   699    1    100.0   30 
 7/04/20  3:30a   11.3   11.4   11.3    89    9.6   0.0   ---  0.00   0.0   ---   11.3   11.4   11.4    9.9  1036.2  0.00   0.0     0     0.00      0     0.0  0.00   0.0   0.146   0.000   25.8    39    0.00   701    1    100.0   30 
 7/04/20  4:00a   11.1   11.3   11.1    90    9.5   0.0   ---  0.00   0.0   ---   11.1   11.2   11.2    9.7  1036.0  0.00   0.0     0     0.00      0     0.0  0.00   0.0   0.150   0.000   25.8    39    0.00   700    1    100.0   30 
 7/04/20  4:30a   11.1   11.2   11.1    91    9.6   0.0   ---  0.00   0.0   ---   11.1   11.2   11.2    9.7  1036.2  0.00   0.0     0     0.00      0     0.0  0.00   0.0   0.152   0.000   25.8    39    0.00   700    1    100.0   30 
 7/04/20  5:00a   10.7   11.1   10.7    91    9.3   0.0   ---  0.00   0.0   ---   10.7   10.8   10.8    9.3  1036.2  0.00   0.0     0     0.00      0     0.0  0.00   0.0   0.159   0.000   25.8    39    0.00   701    1    100.0   30 
 7/04/20  5:30a   10.2   10.7   10.2    92    9.0   0.0   ---  0.00   0.0   ---   10.2   10.4   10.4    8.8  1036.2  0.00   0.0     0     0.00      0     0.0  0.00   0.0   0.169   0.000   25.7    39    0.00   673    1     98.4   30 
 7/04/20  6:00a   10.2   10.2   10.1    93    9.1   0.0   ---  0.00   0.0   ---   10.2   10.4   10.4    8.8  1036.6  0.00   0.0     0     0.00      0     0.0  0.00   0.0   0.170   0.000   25.6    39    0.00   698    1    100.0   30 
 7/04/20  6:30a    9.9   10.2    9.9    93    8.9   0.0   ---  0.00   0.0   ---    9.9   10.2   10.2    8.6  1036.5  0.00   0.0     1     0.04      5     0.0  0.00   0.0   0.175   0.000   25.6    39    0.00   697    1    100.0   30 
 7/04/20  7:00a   10.0   10.0    9.8    94    9.1   0.0   ---  0.00   0.0   ---   10.0   10.3   10.3    9.4  1036.9  0.00   0.0    13     0.56     28     0.0  0.00   0.0   0.174   0.000   25.5    39    0.00   702    1    100.0   30 
 7/04/20  7:30a   10.3   10.3   10.0    94    9.4   0.0   ---  0.00   0.0   ---   10.3   10.5   10.5   10.8  1037.0  0.00   0.0    56     2.41     74     0.0  0.00   0.0   0.168   0.000   25.5    39    0.00   702    1    100.0   30 
 7/04/20  8:00a   10.8   10.8   10.3    95   10.1   0.0   ---  0.00   0.0   ---   10.8   11.1   11.1   12.2  1037.3  0.00   0.0   105     4.52    132     0.0  0.00   0.0   0.156   0.000   25.5    39    0.03   701    1    100.0   30 
 7/04/20  8:30a   11.7   11.7   10.8    95   10.9   0.0   ---  0.00   0.0   ---   11.7   11.8   11.8   14.0  1037.6  0.00   0.0   171     7.35    200     0.0  0.00   0.0   0.139   0.000   25.5    39    0.00   675    1     98.7   30 
 7/04/20  9:00a   12.5   12.5   11.7    90   10.9   0.0   ---  0.00   0.0   ---   12.5   12.6   12.6   14.7  1037.9  0.00   0.0   186     8.00    211     0.4  0.09   0.7   0.122   0.000   25.6    39    0.08   700    1    100.0   30 
 7/04/20  9:30a   14.4   14.4   12.5    79   10.8   0.0   ---  0.00   0.0   ---   14.4   14.2   14.2   18.7  1037.8  0.00   0.0   379    16.30    520     1.2  0.26   1.7   0.082   0.000   25.8    39    0.00   701    1    100.0   30 
 7/04/20 10:00a   15.6   15.7   14.4    71   10.3   0.0   SSE  0.00  12.9   SSE   15.6   15.2   15.2   20.8  1037.7  0.00   0.0   555    23.87    601     2.0  0.43   2.3   0.058   0.000   26.0    39    0.23   702    1    100.0   30 
 7/04/20 10:30a   15.6   15.8   15.3    71   10.4   0.0   SSE  0.00   9.7   SSE   15.6   15.3   15.3   19.9  1037.5  0.00   0.0   447    19.22    826     2.3  0.49   3.1   0.057   0.000   26.2    39    0.00   699    1    100.0   30 
 7/04/20 11:00a   15.7   16.3   15.6    66    9.4   0.0   SSE  0.00  20.9   SSE   15.7   15.3   15.3   18.6  1037.6  0.00   0.0   336    14.45    861     1.7  0.36   3.2   0.054   0.000   26.4    38    0.23   702    1    100.0   30 
 7/04/20 11:30a   15.7   15.7   15.4    65    9.1   0.0   SSE  0.00  22.5   SSE   15.7   15.2   15.2   17.3  1037.3  0.00   0.0   243    10.45    457     1.5  0.32   2.5   0.056   0.000   26.6    38    0.00   700    1    100.0   30 
 7/04/20 12:00p   16.1   16.3   15.7    63    9.0   3.2   SSE  1.61  22.5   SSE   16.1   15.5   15.5   19.3  1037.1  0.00   0.0   386    16.60    515     2.3  0.49   2.7   0.047   0.000   26.7    38    0.18   702    1    100.0   30 
 7/04/20 12:30p   16.4   16.6   16.1    62    9.1   1.6    SW  0.80  19.3    SW   16.4   15.8   15.8   19.3  1036.8  0.00   0.0   351    15.09    582     2.2  0.47   3.0   0.041   0.000   26.8    37    0.00   700    1    100.0   30 
 7/04/20  1:00p   16.4   16.4   16.3    61    8.8   1.6   SSE  0.80  22.5   SSE   16.4   15.8   15.8   18.8  1036.4  0.00   0.0   311    13.37    373     1.9  0.41   2.1   0.041   0.000   26.9    37    0.18   701    1    100.0   30 
 7/04/20  1:30p   16.9   16.9   16.3    59    8.8   1.6   SSW  0.80  20.9   WSW   16.9   16.2   16.2   19.7  1035.9  0.00   0.0   348    14.97    388     1.9  0.41   2.2   0.030   0.000   27.0    37    0.00   702    1    100.0   30 
 7/04/20  2:00p   15.9   16.9   15.9    62    8.7   3.2   SSE  1.61  25.7   SSE   15.9   15.3   15.3   17.7  1035.9  0.00   0.0   242    10.41    403     1.3  0.28   2.0   0.050   0.000   27.1    37    0.18   703    1    100.0   30 
 7/04/20  2:30p   15.9   16.0   15.8    64    9.1   1.6   SSE  0.80  22.5   SSE   15.9   15.4   15.4   17.1  1035.8  0.00   0.0   184     7.91    199     0.9  0.19   1.0   0.050   0.000   27.2    36    0.00   700    1    100.0   30 
 7/04/20  3:00p   15.6   15.9   15.6    65    9.0   1.6   SSE  0.80  19.3   SSE   15.6   15.1   15.1   16.5  1035.7  0.00   0.0   155     6.67    190     0.7  0.15   0.9   0.058   0.000   27.2    36    0.10   703    1    100.0   30 
 7/04/20  3:30p   15.5   15.6   15.4    66    9.2   1.6   SSE  0.80  27.4   SSE   15.5   15.1   15.1   16.5  1035.6  0.00   0.0   142     6.11    155     0.5  0.11   0.6   0.059   0.000   27.2    36    0.00   701    1    100.0   30 
 7/04/20  4:00p   15.6   15.7   15.5    63    8.6   1.6   SSE  0.80  16.1     S   15.6   15.0   15.0   17.6  1035.4  0.00   0.0   199     8.56    248     0.5  0.11   0.6   0.057   0.000   27.2    36    0.10   702    1    100.0   30 
 7/04/20  4:30p   15.3   15.6   15.3    65    8.7   0.0   SSE  0.00  14.5   SSE   15.3   14.7   14.7   16.4  1035.3  0.00   0.0   132     5.68    183     0.0  0.00   0.5   0.064   0.000   27.2    36    0.00   700    1    100.0   30 
 7/04/20  5:00p   14.9   15.3   14.9    68    9.1   0.0   SSE  0.00  20.9   SSE   14.9   14.5   14.5   15.7  1035.3  0.00   0.0    99     4.26    107     0.0  0.00   0.0   0.071   0.000   27.2    35    0.08   698    1    100.0   30 
 7/04/20  5:30p   14.5   14.9   14.5    71    9.3   0.0   SSE  0.00  20.9   SSE   14.5   14.1   14.1   13.2  1035.5  0.00   0.0    48     2.06     83     0.0  0.00   0.0   0.080   0.000   26.9    35    0.00   699    1    100.0   30 
 7/04/20  6:00p   14.2   14.5   14.2    75    9.9   0.0    SW  0.00  17.7    SW   14.2   13.9   13.9   12.5  1035.9  0.00   0.0     8     0.34     21     0.0  0.00   0.0   0.086   0.000   25.9    36    0.03   699    1    100.0   30 
 7/04/20  6:30p   13.9   14.2   13.8    76    9.7   0.0     S  0.00  22.5     S   13.9   13.6   13.6   12.1  1036.1  0.00   0.0     0     0.00      0     0.0  0.00   0.0   0.093   0.000   25.2    37    0.00   701    1    100.0   30 
 7/04/20  7:00p   13.8   13.9   13.8    76    9.6   0.0   ---  0.00   0.0   ---   13.8   13.5   13.5   11.9  1036.4  0.00   0.0     0     0.00      0     0.0  0.00   0.0   0.095   0.000   24.9    38    0.00   698    1    100.0   30 
 7/04/20  7:30p   13.5   13.8   13.5    77    9.5   0.0   ---  0.00   0.0   ---   13.5   13.2   13.2   11.7  1036.6  0.00   0.0     0     0.00      0     0.0  0.00   0.0   0.101   0.000   24.7    38    0.00   701    1    100.0   30 
 7/04/20  8:00p   13.2   13.5   13.2    81   10.0   0.0   ---  0.00   0.0   ---   13.2   13.1   13.1   11.5  1036.8  0.00   0.0     0     0.00      0     0.0  0.00   0.0   0.106   0.000   25.0    38    0.03   698    1    100.0   30 
 7/04/20  8:30p   12.9   13.3   12.9    83   10.1   0.0   SSE  0.00  12.9   SSE   12.9   12.8   12.8   11.2  1036.8  0.00   0.0     0     0.00      0     0.0  0.00   0.0   0.113   0.000   25.6    38    0.00   701    1    100.0   30 
 7/04/20  9:00p   12.4   12.9   12.4    84    9.8   0.0   ---  0.00   0.0   ---   12.4   12.4   12.4   10.8  1036.9  0.00   0.0     0     0.00      0     0.0  0.00   0.0   0.123   0.000   25.9    38    0.00   702    1    100.0   30 
 7/04/20  9:30p   12.2   12.4   12.2    86    9.9   0.0   ---  0.00   0.0   ---   12.2   12.2   12.2   10.6  1037.0  0.00   0.0     0     0.00      0     0.0  0.00   0.0   0.127   0.000   26.0    38    0.03   701    1    100.0   30 
 7/04/20 10:00p   11.8   12.2   11.8    87    9.7   0.0   ---  0.00   0.0   ---   11.8   11.8   11.8   10.3  1037.0  0.00   0.0     0     0.00      0     0.0  0.00   0.0   0.135   0.000   26.1    38    0.00   700    1    100.0   30 
 7/04/20 10:30p   11.7   11.9   11.7    89    9.9   0.0   ---  0.00   0.0   ---   11.7   11.7   11.7   10.2  1037.1  0.00   0.0     0     0.00      0     0.0  0.00   0.0   0.139   0.000   26.1    38    0.00   700    1    100.0   30 
 7/04/20 11:00p   11.6   11.7   11.6    90   10.0   0.0   ---  0.00   0.0   ---   11.6   11.6   11.6   10.1  1036.8  0.00   0.0     0     0.00      0     0.0  0.00   0.0   0.141   0.000   26.1    38    0.00   701    1    100.0   30 
 7/04/20 11:30p   11.5   11.6   11.5    91   10.1   0.0   ---  0.00   0.0   ---   11.5   11.6   11.6   10.1  1036.6  0.00   0.0     0     0.00      0     0.0  0.00   0.0   0.142   0.000   26.1    38    0.00   699    1    100.0   30 
 8/04/20 12:00a   11.3   11.5   11.2    92   10.0   0.0   ---  0.00   0.0   ---   11.3   11.4   11.4    9.8  1036.5  0.00   0.0     0     0.00      0     0.0  0.00   0.0   0.147   0.000   26.0    38    0.00   700    1    100.0   30 
 8/04/20 12:30a   11.3   11.3   11.3    92   10.0   0.0   ---  0.00   0.0   ---   11.3   11.4   11.4    9.8  1036.4  0.00   0.0     0     0.00      0     0.0  0.00   0.0   0.147   0.000   26.0    38    0.00   649    1     94.9   30 
 8/04/20  1:00a   11.3   11.3   11.2    93   10.2   0.0   ---  0.00   0.0   ---   11.3   11.4   11.4    9.8  1036.6  0.00   0.0     0     0.00      0     0.0  0.00   0.0   0.147   0.000   26.0    38    0.00   698    1    100.0   30 
 8/04/20  1:30a   11.1   11.3   11.1    93   10.0   0.0   ---  0.00   0.0   ---   11.1   11.3   11.3    9.7  1036.5  0.00   0.0     0     0.00      0     0.0  0.00   0.0   0.150   0.000   26.0    38    0.00   699    1    100.0   30 
 8/04/20  2:00a   11.1   11.1   11.0    93   10.0   0.0   ---  0.00   0.0   ---   11.1   11.2   11.2    9.7  1036.3  0.00   0.0     0     0.00      0     0.0  0.00   0.0   0.152   0.000   25.9    38    0.00   695    1    100.0   30 
 8/04/20  2:30a   10.8   11.1   10.8    94    9.9   0.0   ---  0.00   0.0   ---   10.8   11.0   11.0    9.4  1035.9  0.00   0.0     0     0.00      0     0.0  0.00   0.0   0.156   0.000   25.9    38    0.00   701    1    100.0   30 
 8/04/20  3:00a   10.4   10.8   10.3    94    9.5   0.0   ---  0.00   0.0   ---   10.4   10.6   10.6    9.1  1035.8  0.00   0.0     0     0.00      0     0.0  0.00   0.0   0.166   0.000   25.8    38    0.00   701    1    100.0   30 
 8/04/20  3:30a   10.2   10.3   10.1    94    9.2   0.0   ---  0.00   0.0   ---   10.2   10.4   10.4    8.8  1035.8  0.00   0.0     0     0.00      0     0.0  0.00   0.0   0.170   0.000   25.8    38    0.00   699    1    100.0   30 
 8/04/20  4:00a   10.5   10.5   10.2    95    9.7   0.0   ---  0.00   0.0   ---   10.5   10.7   10.7    9.2  1035.9  0.00   0.0     0     0.00      0     0.0  0.00   0.0   0.163   0.000   25.7    38    0.00   702    1    100.0   30 
 8/04/20  4:30a   10.6   10.6   10.5    95    9.8   0.0   ---  0.00   0.0   ---   10.6   10.8   10.8    9.2  1036.1  0.00   0.0     0     0.00      0     0.0  0.00   0.0   0.162   0.000   25.7    38    0.00   697    1    100.0   30 
 8/04/20  5:00a   10.8   10.8   10.6    95   10.0   0.0   ---  0.00   0.0   ---   10.8   11.0   11.0    9.4  1036.2  0.00   0.0     0     0.00      0     0.0  0.00   0.0   0.157   0.000   25.7    38    0.00   700    1    100.0   30